<?xml version="1.0" encoding="UTF-8" standalone="no" ?>
<gpx xmlns="http://www.topografix.com/GPX/1/1" xmlns:xsi="http://www.w3.org/2001/XMLSchema-instance" xsi:schemaLocation="http://www.topografix.com/GPX/1/1 http://www.topografix.com/GPX/1/1/gpx.xsd" version="1.1" creator="VisuGPX - https://www.visugpx.com">
  <metadata>
    <name>fourneville_15,1_2020-02-06</name>
  </metadata>
  <trk>
    <name><![CDATA[fourneville_15,1_2020-02-06]]></name>
    <extensions>
      <line xmlns="http://www.topografix.com/GPX/gpx_style/0/2">
        <width>3</width>
      </line>
    </extensions>
    <trkseg>
      <trkpt lat="49.35693" lon="0.23544">
        <ele>108.2</ele>
        <time>2020-02-06T07:59:54.000Z</time>
      </trkpt>
      <trkpt lat="49.35693" lon="0.23544">
        <ele>108.2</ele>
        <time>2020-02-06T07:59:55.000Z</time>
      </trkpt>
      <trkpt lat="49.35706" lon="0.23537">
        <ele>109.5</ele>
        <time>2020-02-06T08:00:29.000Z</time>
      </trkpt>
      <trkpt lat="49.3572" lon="0.23537">
        <ele>112.4</ele>
        <time>2020-02-06T08:00:43.000Z</time>
      </trkpt>
      <trkpt lat="49.35733" lon="0.23545">
        <ele>115.4</ele>
        <time>2020-02-06T08:00:55.000Z</time>
      </trkpt>
      <trkpt lat="49.35744" lon="0.23558">
        <ele>117.1</ele>
        <time>2020-02-06T08:01:07.000Z</time>
      </trkpt>
      <trkpt lat="49.35756" lon="0.23569">
        <ele>117.9</ele>
        <time>2020-02-06T08:01:18.000Z</time>
      </trkpt>
      <trkpt lat="49.35769" lon="0.23574">
        <ele>118.6</ele>
        <time>2020-02-06T08:01:28.000Z</time>
      </trkpt>
      <trkpt lat="49.35783" lon="0.23581">
        <ele>118.8</ele>
        <time>2020-02-06T08:01:39.000Z</time>
      </trkpt>
      <trkpt lat="49.35796" lon="0.23585">
        <ele>118.6</ele>
        <time>2020-02-06T08:01:49.000Z</time>
      </trkpt>
      <trkpt lat="49.3581" lon="0.23588">
        <ele>118.1</ele>
        <time>2020-02-06T08:02:01.000Z</time>
      </trkpt>
      <trkpt lat="49.35824" lon="0.23594">
        <ele>117.8</ele>
        <time>2020-02-06T08:02:13.000Z</time>
      </trkpt>
      <trkpt lat="49.35837" lon="0.23602">
        <ele>117.5</ele>
        <time>2020-02-06T08:02:24.000Z</time>
      </trkpt>
      <trkpt lat="49.3585" lon="0.23609">
        <ele>117.2</ele>
        <time>2020-02-06T08:02:33.000Z</time>
      </trkpt>
      <trkpt lat="49.35863" lon="0.23615">
        <ele>116.9</ele>
        <time>2020-02-06T08:02:43.000Z</time>
      </trkpt>
      <trkpt lat="49.35878" lon="0.23621">
        <ele>116.4</ele>
        <time>2020-02-06T08:02:55.000Z</time>
      </trkpt>
      <trkpt lat="49.35892" lon="0.23628">
        <ele>116.3</ele>
        <time>2020-02-06T08:03:08.000Z</time>
      </trkpt>
      <trkpt lat="49.35906" lon="0.23634">
        <ele>115.4</ele>
        <time>2020-02-06T08:03:21.000Z</time>
      </trkpt>
      <trkpt lat="49.3592" lon="0.23639">
        <ele>114.6</ele>
        <time>2020-02-06T08:03:30.000Z</time>
      </trkpt>
      <trkpt lat="49.35932" lon="0.23648">
        <ele>114</ele>
        <time>2020-02-06T08:03:40.000Z</time>
      </trkpt>
      <trkpt lat="49.35945" lon="0.23653">
        <ele>113.7</ele>
        <time>2020-02-06T08:03:50.000Z</time>
      </trkpt>
      <trkpt lat="49.3596" lon="0.23658">
        <ele>113.4</ele>
        <time>2020-02-06T08:04:02.000Z</time>
      </trkpt>
      <trkpt lat="49.35973" lon="0.23663">
        <ele>113.4</ele>
        <time>2020-02-06T08:04:15.000Z</time>
      </trkpt>
      <trkpt lat="49.35987" lon="0.23666">
        <ele>113.5</ele>
        <time>2020-02-06T08:04:25.000Z</time>
      </trkpt>
      <trkpt lat="49.36" lon="0.23671">
        <ele>113.3</ele>
        <time>2020-02-06T08:04:37.000Z</time>
      </trkpt>
      <trkpt lat="49.36014" lon="0.23679">
        <ele>113.7</ele>
        <time>2020-02-06T08:04:48.000Z</time>
      </trkpt>
      <trkpt lat="49.3603" lon="0.23686">
        <ele>113.8</ele>
        <time>2020-02-06T08:04:57.000Z</time>
      </trkpt>
      <trkpt lat="49.36044" lon="0.23692">
        <ele>113.7</ele>
        <time>2020-02-06T08:05:10.000Z</time>
      </trkpt>
      <trkpt lat="49.36058" lon="0.23697">
        <ele>114</ele>
        <time>2020-02-06T08:05:22.000Z</time>
      </trkpt>
      <trkpt lat="49.36071" lon="0.23707">
        <ele>114.4</ele>
        <time>2020-02-06T08:05:32.000Z</time>
      </trkpt>
      <trkpt lat="49.36085" lon="0.23711">
        <ele>115</ele>
        <time>2020-02-06T08:05:40.000Z</time>
      </trkpt>
      <trkpt lat="49.36099" lon="0.2372">
        <ele>116.4</ele>
        <time>2020-02-06T08:05:50.000Z</time>
      </trkpt>
      <trkpt lat="49.36111" lon="0.23731">
        <ele>117.3</ele>
        <time>2020-02-06T08:06:03.000Z</time>
      </trkpt>
      <trkpt lat="49.36123" lon="0.23742">
        <ele>117.5</ele>
        <time>2020-02-06T08:06:14.000Z</time>
      </trkpt>
      <trkpt lat="49.36136" lon="0.23754">
        <ele>117.1</ele>
        <time>2020-02-06T08:06:28.000Z</time>
      </trkpt>
      <trkpt lat="49.36147" lon="0.23769">
        <ele>113.8</ele>
        <time>2020-02-06T08:06:44.000Z</time>
      </trkpt>
      <trkpt lat="49.36156" lon="0.23786">
        <ele>111.1</ele>
        <time>2020-02-06T08:06:59.000Z</time>
      </trkpt>
      <trkpt lat="49.36165" lon="0.23802">
        <ele>109</ele>
        <time>2020-02-06T08:07:11.000Z</time>
      </trkpt>
      <trkpt lat="49.36176" lon="0.23817">
        <ele>107.2</ele>
        <time>2020-02-06T08:07:21.000Z</time>
      </trkpt>
      <trkpt lat="49.36186" lon="0.23832">
        <ele>105.6</ele>
        <time>2020-02-06T08:07:31.000Z</time>
      </trkpt>
      <trkpt lat="49.36198" lon="0.23844">
        <ele>104</ele>
        <time>2020-02-06T08:07:42.000Z</time>
      </trkpt>
      <trkpt lat="49.36204" lon="0.23863">
        <ele>101.8</ele>
        <time>2020-02-06T08:07:55.000Z</time>
      </trkpt>
      <trkpt lat="49.36214" lon="0.23878">
        <ele>99.9</ele>
        <time>2020-02-06T08:08:06.000Z</time>
      </trkpt>
      <trkpt lat="49.36226" lon="0.23895">
        <ele>98</ele>
        <time>2020-02-06T08:08:17.000Z</time>
      </trkpt>
      <trkpt lat="49.36235" lon="0.23913">
        <ele>95.3</ele>
        <time>2020-02-06T08:08:28.000Z</time>
      </trkpt>
      <trkpt lat="49.36245" lon="0.23929">
        <ele>94.3</ele>
        <time>2020-02-06T08:08:42.000Z</time>
      </trkpt>
      <trkpt lat="49.36258" lon="0.23938">
        <ele>93.3</ele>
        <time>2020-02-06T08:08:55.000Z</time>
      </trkpt>
      <trkpt lat="49.3627" lon="0.23951">
        <ele>92.1</ele>
        <time>2020-02-06T08:09:06.000Z</time>
      </trkpt>
      <trkpt lat="49.36283" lon="0.23961">
        <ele>90.5</ele>
        <time>2020-02-06T08:09:17.000Z</time>
      </trkpt>
      <trkpt lat="49.36294" lon="0.23972">
        <ele>88.9</ele>
        <time>2020-02-06T08:09:28.000Z</time>
      </trkpt>
      <trkpt lat="49.36307" lon="0.2398">
        <ele>87.6</ele>
        <time>2020-02-06T08:09:39.000Z</time>
      </trkpt>
      <trkpt lat="49.36321" lon="0.23987">
        <ele>86.3</ele>
        <time>2020-02-06T08:09:49.000Z</time>
      </trkpt>
      <trkpt lat="49.36332" lon="0.24">
        <ele>84</ele>
        <time>2020-02-06T08:10:04.000Z</time>
      </trkpt>
      <trkpt lat="49.36346" lon="0.24007">
        <ele>83</ele>
        <time>2020-02-06T08:10:12.000Z</time>
      </trkpt>
      <trkpt lat="49.36355" lon="0.24022">
        <ele>81.4</ele>
        <time>2020-02-06T08:10:24.000Z</time>
      </trkpt>
      <trkpt lat="49.36366" lon="0.24035">
        <ele>80.7</ele>
        <time>2020-02-06T08:10:35.000Z</time>
      </trkpt>
      <trkpt lat="49.36375" lon="0.24051">
        <ele>80.4</ele>
        <time>2020-02-06T08:10:43.000Z</time>
      </trkpt>
      <trkpt lat="49.36383" lon="0.24069">
        <ele>80.1</ele>
        <time>2020-02-06T08:10:53.000Z</time>
      </trkpt>
      <trkpt lat="49.36394" lon="0.2408">
        <ele>80.6</ele>
        <time>2020-02-06T08:11:56.000Z</time>
      </trkpt>
      <trkpt lat="49.36405" lon="0.24094">
        <ele>81.2</ele>
        <time>2020-02-06T08:12:28.000Z</time>
      </trkpt>
      <trkpt lat="49.36415" lon="0.2411">
        <ele>81.3</ele>
        <time>2020-02-06T08:12:39.000Z</time>
      </trkpt>
      <trkpt lat="49.36422" lon="0.24128">
        <ele>81.1</ele>
        <time>2020-02-06T08:12:49.000Z</time>
      </trkpt>
      <trkpt lat="49.3643" lon="0.24145">
        <ele>83.4</ele>
        <time>2020-02-06T08:13:02.000Z</time>
      </trkpt>
      <trkpt lat="49.36442" lon="0.24159">
        <ele>86.2</ele>
        <time>2020-02-06T08:13:15.000Z</time>
      </trkpt>
      <trkpt lat="49.36456" lon="0.24168">
        <ele>88.2</ele>
        <time>2020-02-06T08:13:26.000Z</time>
      </trkpt>
      <trkpt lat="49.3647" lon="0.24174">
        <ele>91.4</ele>
        <time>2020-02-06T08:13:41.000Z</time>
      </trkpt>
      <trkpt lat="49.36483" lon="0.24181">
        <ele>94.4</ele>
        <time>2020-02-06T08:13:58.000Z</time>
      </trkpt>
      <trkpt lat="49.36499" lon="0.24184">
        <ele>97.3</ele>
        <time>2020-02-06T08:14:14.000Z</time>
      </trkpt>
      <trkpt lat="49.36512" lon="0.24189">
        <ele>99.9</ele>
        <time>2020-02-06T08:14:29.000Z</time>
      </trkpt>
      <trkpt lat="49.36526" lon="0.24195">
        <ele>102.2</ele>
        <time>2020-02-06T08:14:44.000Z</time>
      </trkpt>
      <trkpt lat="49.36536" lon="0.2421">
        <ele>101.1</ele>
        <time>2020-02-06T08:15:10.000Z</time>
      </trkpt>
      <trkpt lat="49.36547" lon="0.24221">
        <ele>99.7</ele>
        <time>2020-02-06T08:15:23.000Z</time>
      </trkpt>
      <trkpt lat="49.36559" lon="0.24232">
        <ele>98.3</ele>
        <time>2020-02-06T08:15:34.000Z</time>
      </trkpt>
      <trkpt lat="49.36572" lon="0.24241">
        <ele>97.3</ele>
        <time>2020-02-06T08:15:45.000Z</time>
      </trkpt>
      <trkpt lat="49.36583" lon="0.24252">
        <ele>96.7</ele>
        <time>2020-02-06T08:15:57.000Z</time>
      </trkpt>
      <trkpt lat="49.36597" lon="0.24262">
        <ele>96.6</ele>
        <time>2020-02-06T08:16:08.000Z</time>
      </trkpt>
      <trkpt lat="49.3661" lon="0.2427">
        <ele>96.5</ele>
        <time>2020-02-06T08:16:18.000Z</time>
      </trkpt>
      <trkpt lat="49.36622" lon="0.24283">
        <ele>96.4</ele>
        <time>2020-02-06T08:16:28.000Z</time>
      </trkpt>
      <trkpt lat="49.36636" lon="0.2429">
        <ele>96</ele>
        <time>2020-02-06T08:16:38.000Z</time>
      </trkpt>
      <trkpt lat="49.36647" lon="0.24302">
        <ele>95.1</ele>
        <time>2020-02-06T08:16:47.000Z</time>
      </trkpt>
      <trkpt lat="49.36655" lon="0.2432">
        <ele>93.6</ele>
        <time>2020-02-06T08:17:00.000Z</time>
      </trkpt>
      <trkpt lat="49.36665" lon="0.24334">
        <ele>92.9</ele>
        <time>2020-02-06T08:17:10.000Z</time>
      </trkpt>
      <trkpt lat="49.36675" lon="0.24349">
        <ele>91.5</ele>
        <time>2020-02-06T08:17:23.000Z</time>
      </trkpt>
      <trkpt lat="49.36684" lon="0.24363">
        <ele>89.6</ele>
        <time>2020-02-06T08:17:36.000Z</time>
      </trkpt>
      <trkpt lat="49.36692" lon="0.24381">
        <ele>87.2</ele>
        <time>2020-02-06T08:17:49.000Z</time>
      </trkpt>
      <trkpt lat="49.36702" lon="0.24394">
        <ele>84.2</ele>
        <time>2020-02-06T08:18:01.000Z</time>
      </trkpt>
      <trkpt lat="49.36713" lon="0.24407">
        <ele>81.9</ele>
        <time>2020-02-06T08:18:12.000Z</time>
      </trkpt>
      <trkpt lat="49.36717" lon="0.24429">
        <ele>79.9</ele>
        <time>2020-02-06T08:18:22.000Z</time>
      </trkpt>
      <trkpt lat="49.36725" lon="0.24448">
        <ele>78.6</ele>
        <time>2020-02-06T08:18:33.000Z</time>
      </trkpt>
      <trkpt lat="49.36731" lon="0.24467">
        <ele>77.7</ele>
        <time>2020-02-06T08:18:43.000Z</time>
      </trkpt>
      <trkpt lat="49.36741" lon="0.24481">
        <ele>76.9</ele>
        <time>2020-02-06T08:18:52.000Z</time>
      </trkpt>
      <trkpt lat="49.3675" lon="0.24497">
        <ele>75.3</ele>
        <time>2020-02-06T08:19:04.000Z</time>
      </trkpt>
      <trkpt lat="49.36758" lon="0.24516">
        <ele>73.9</ele>
        <time>2020-02-06T08:19:17.000Z</time>
      </trkpt>
      <trkpt lat="49.36771" lon="0.24527">
        <ele>72.9</ele>
        <time>2020-02-06T08:19:25.000Z</time>
      </trkpt>
      <trkpt lat="49.36779" lon="0.24545">
        <ele>72.5</ele>
        <time>2020-02-06T08:19:36.000Z</time>
      </trkpt>
      <trkpt lat="49.36787" lon="0.24563">
        <ele>71.4</ele>
        <time>2020-02-06T08:19:50.000Z</time>
      </trkpt>
      <trkpt lat="49.36796" lon="0.2458">
        <ele>70.9</ele>
        <time>2020-02-06T08:20:02.000Z</time>
      </trkpt>
      <trkpt lat="49.36807" lon="0.24595">
        <ele>70.4</ele>
        <time>2020-02-06T08:20:14.000Z</time>
      </trkpt>
      <trkpt lat="49.36817" lon="0.24608">
        <ele>70</ele>
        <time>2020-02-06T08:20:25.000Z</time>
      </trkpt>
      <trkpt lat="49.36829" lon="0.2462">
        <ele>69.7</ele>
        <time>2020-02-06T08:20:35.000Z</time>
      </trkpt>
      <trkpt lat="49.36841" lon="0.24628">
        <ele>69.7</ele>
        <time>2020-02-06T08:20:44.000Z</time>
      </trkpt>
      <trkpt lat="49.36856" lon="0.24633">
        <ele>70</ele>
        <time>2020-02-06T08:20:55.000Z</time>
      </trkpt>
      <trkpt lat="49.36868" lon="0.24641">
        <ele>70</ele>
        <time>2020-02-06T08:21:08.000Z</time>
      </trkpt>
      <trkpt lat="49.36879" lon="0.24655">
        <ele>70.4</ele>
        <time>2020-02-06T08:21:19.000Z</time>
      </trkpt>
      <trkpt lat="49.36892" lon="0.24666">
        <ele>69.8</ele>
        <time>2020-02-06T08:21:30.000Z</time>
      </trkpt>
      <trkpt lat="49.36905" lon="0.2468">
        <ele>68.7</ele>
        <time>2020-02-06T08:21:42.000Z</time>
      </trkpt>
      <trkpt lat="49.36916" lon="0.24695">
        <ele>67.7</ele>
        <time>2020-02-06T08:21:52.000Z</time>
      </trkpt>
      <trkpt lat="49.36925" lon="0.24711">
        <ele>66.9</ele>
        <time>2020-02-06T08:22:03.000Z</time>
      </trkpt>
      <trkpt lat="49.3693" lon="0.24731">
        <ele>66.4</ele>
        <time>2020-02-06T08:22:15.000Z</time>
      </trkpt>
      <trkpt lat="49.36939" lon="0.24748">
        <ele>66.1</ele>
        <time>2020-02-06T08:22:28.000Z</time>
      </trkpt>
      <trkpt lat="49.3694" lon="0.24769">
        <ele>65.8</ele>
        <time>2020-02-06T08:22:39.000Z</time>
      </trkpt>
      <trkpt lat="49.36942" lon="0.2479">
        <ele>66.1</ele>
        <time>2020-02-06T08:22:51.000Z</time>
      </trkpt>
      <trkpt lat="49.36945" lon="0.24811">
        <ele>66</ele>
        <time>2020-02-06T08:23:03.000Z</time>
      </trkpt>
      <trkpt lat="49.36949" lon="0.24832">
        <ele>66.2</ele>
        <time>2020-02-06T08:23:15.000Z</time>
      </trkpt>
      <trkpt lat="49.36954" lon="0.24852">
        <ele>66.5</ele>
        <time>2020-02-06T08:23:28.000Z</time>
      </trkpt>
      <trkpt lat="49.36964" lon="0.24868">
        <ele>66.7</ele>
        <time>2020-02-06T08:23:39.000Z</time>
      </trkpt>
      <trkpt lat="49.36969" lon="0.24889">
        <ele>66.5</ele>
        <time>2020-02-06T08:23:52.000Z</time>
      </trkpt>
      <trkpt lat="49.36973" lon="0.24908">
        <ele>66.5</ele>
        <time>2020-02-06T08:24:02.000Z</time>
      </trkpt>
      <trkpt lat="49.36982" lon="0.24927">
        <ele>68.3</ele>
        <time>2020-02-06T08:24:16.000Z</time>
      </trkpt>
      <trkpt lat="49.36988" lon="0.24946">
        <ele>70.3</ele>
        <time>2020-02-06T08:24:30.000Z</time>
      </trkpt>
      <trkpt lat="49.37" lon="0.24959">
        <ele>71.4</ele>
        <time>2020-02-06T08:24:40.000Z</time>
      </trkpt>
      <trkpt lat="49.37008" lon="0.24977">
        <ele>71.6</ele>
        <time>2020-02-06T08:24:57.000Z</time>
      </trkpt>
      <trkpt lat="49.37007" lon="0.24998">
        <ele>70.6</ele>
        <time>2020-02-06T08:26:25.000Z</time>
      </trkpt>
      <trkpt lat="49.3702" lon="0.25006">
        <ele>71</ele>
        <time>2020-02-06T08:26:44.000Z</time>
      </trkpt>
      <trkpt lat="49.3703" lon="0.25021">
        <ele>73.7</ele>
        <time>2020-02-06T08:27:03.000Z</time>
      </trkpt>
      <trkpt lat="49.3704" lon="0.25034">
        <ele>76.2</ele>
        <time>2020-02-06T08:27:19.000Z</time>
      </trkpt>
      <trkpt lat="49.3705" lon="0.2505">
        <ele>78.7</ele>
        <time>2020-02-06T08:27:36.000Z</time>
      </trkpt>
      <trkpt lat="49.3706" lon="0.25065">
        <ele>81.7</ele>
        <time>2020-02-06T08:27:55.000Z</time>
      </trkpt>
      <trkpt lat="49.37069" lon="0.2508">
        <ele>84</ele>
        <time>2020-02-06T08:28:11.000Z</time>
      </trkpt>
      <trkpt lat="49.37081" lon="0.25093">
        <ele>85.5</ele>
        <time>2020-02-06T08:28:25.000Z</time>
      </trkpt>
      <trkpt lat="49.37087" lon="0.25112">
        <ele>87.4</ele>
        <time>2020-02-06T08:28:42.000Z</time>
      </trkpt>
      <trkpt lat="49.37092" lon="0.25131">
        <ele>90.4</ele>
        <time>2020-02-06T08:29:02.000Z</time>
      </trkpt>
      <trkpt lat="49.37101" lon="0.25148">
        <ele>92.2</ele>
        <time>2020-02-06T08:29:16.000Z</time>
      </trkpt>
      <trkpt lat="49.37106" lon="0.25168">
        <ele>93.3</ele>
        <time>2020-02-06T08:29:28.000Z</time>
      </trkpt>
      <trkpt lat="49.37114" lon="0.25188">
        <ele>95</ele>
        <time>2020-02-06T08:29:46.000Z</time>
      </trkpt>
      <trkpt lat="49.37119" lon="0.25208">
        <ele>96.1</ele>
        <time>2020-02-06T08:30:00.000Z</time>
      </trkpt>
      <trkpt lat="49.37128" lon="0.25224">
        <ele>97.4</ele>
        <time>2020-02-06T08:30:14.000Z</time>
      </trkpt>
      <trkpt lat="49.37134" lon="0.25244">
        <ele>98.3</ele>
        <time>2020-02-06T08:30:26.000Z</time>
      </trkpt>
      <trkpt lat="49.37147" lon="0.25251">
        <ele>99.5</ele>
        <time>2020-02-06T08:30:37.000Z</time>
      </trkpt>
      <trkpt lat="49.37157" lon="0.25266">
        <ele>102.1</ele>
        <time>2020-02-06T08:30:56.000Z</time>
      </trkpt>
      <trkpt lat="49.3717" lon="0.25276">
        <ele>104.3</ele>
        <time>2020-02-06T08:31:12.000Z</time>
      </trkpt>
      <trkpt lat="49.3718" lon="0.25291">
        <ele>107.5</ele>
        <time>2020-02-06T08:31:33.000Z</time>
      </trkpt>
      <trkpt lat="49.37193" lon="0.25298">
        <ele>109.2</ele>
        <time>2020-02-06T08:31:46.000Z</time>
      </trkpt>
      <trkpt lat="49.37208" lon="0.25293">
        <ele>110.4</ele>
        <time>2020-02-06T08:31:56.000Z</time>
      </trkpt>
      <trkpt lat="49.37223" lon="0.25289">
        <ele>111.9</ele>
        <time>2020-02-06T08:32:09.000Z</time>
      </trkpt>
      <trkpt lat="49.37236" lon="0.25282">
        <ele>113.2</ele>
        <time>2020-02-06T08:32:25.000Z</time>
      </trkpt>
      <trkpt lat="49.3725" lon="0.25286">
        <ele>113.8</ele>
        <time>2020-02-06T08:32:37.000Z</time>
      </trkpt>
      <trkpt lat="49.37264" lon="0.25284">
        <ele>114.4</ele>
        <time>2020-02-06T08:32:52.000Z</time>
      </trkpt>
      <trkpt lat="49.37279" lon="0.2529">
        <ele>114.4</ele>
        <time>2020-02-06T08:33:05.000Z</time>
      </trkpt>
      <trkpt lat="49.37292" lon="0.25295">
        <ele>113.7</ele>
        <time>2020-02-06T08:33:17.000Z</time>
      </trkpt>
      <trkpt lat="49.37306" lon="0.25303">
        <ele>113.7</ele>
        <time>2020-02-06T08:33:29.000Z</time>
      </trkpt>
      <trkpt lat="49.37319" lon="0.25313">
        <ele>113.5</ele>
        <time>2020-02-06T08:33:41.000Z</time>
      </trkpt>
      <trkpt lat="49.37332" lon="0.2532">
        <ele>113</ele>
        <time>2020-02-06T08:33:53.000Z</time>
      </trkpt>
      <trkpt lat="49.37345" lon="0.25329">
        <ele>112.4</ele>
        <time>2020-02-06T08:34:06.000Z</time>
      </trkpt>
      <trkpt lat="49.37357" lon="0.25337">
        <ele>111.3</ele>
        <time>2020-02-06T08:34:18.000Z</time>
      </trkpt>
      <trkpt lat="49.3737" lon="0.25329">
        <ele>111.1</ele>
        <time>2020-02-06T08:34:27.000Z</time>
      </trkpt>
      <trkpt lat="49.37381" lon="0.25314">
        <ele>110.9</ele>
        <time>2020-02-06T08:34:41.000Z</time>
      </trkpt>
      <trkpt lat="49.37387" lon="0.25295">
        <ele>111.3</ele>
        <time>2020-02-06T08:34:53.000Z</time>
      </trkpt>
      <trkpt lat="49.37396" lon="0.25278">
        <ele>111.6</ele>
        <time>2020-02-06T08:35:04.000Z</time>
      </trkpt>
      <trkpt lat="49.37401" lon="0.25257">
        <ele>112.2</ele>
        <time>2020-02-06T08:35:15.000Z</time>
      </trkpt>
      <trkpt lat="49.37405" lon="0.25236">
        <ele>112.6</ele>
        <time>2020-02-06T08:35:26.000Z</time>
      </trkpt>
      <trkpt lat="49.37413" lon="0.25219">
        <ele>112.9</ele>
        <time>2020-02-06T08:35:37.000Z</time>
      </trkpt>
      <trkpt lat="49.37415" lon="0.25198">
        <ele>113</ele>
        <time>2020-02-06T08:35:48.000Z</time>
      </trkpt>
      <trkpt lat="49.37421" lon="0.25178">
        <ele>112.7</ele>
        <time>2020-02-06T08:36:00.000Z</time>
      </trkpt>
      <trkpt lat="49.37435" lon="0.25176">
        <ele>111.8</ele>
        <time>2020-02-06T08:36:15.000Z</time>
      </trkpt>
      <trkpt lat="49.37449" lon="0.25184">
        <ele>110.4</ele>
        <time>2020-02-06T08:36:30.000Z</time>
      </trkpt>
      <trkpt lat="49.37462" lon="0.25189">
        <ele>108.6</ele>
        <time>2020-02-06T08:37:13.000Z</time>
      </trkpt>
      <trkpt lat="49.37473" lon="0.25201">
        <ele>108.1</ele>
        <time>2020-02-06T08:37:46.000Z</time>
      </trkpt>
      <trkpt lat="49.37485" lon="0.25214">
        <ele>108.6</ele>
        <time>2020-02-06T08:38:01.000Z</time>
      </trkpt>
      <trkpt lat="49.37491" lon="0.25234">
        <ele>109.3</ele>
        <time>2020-02-06T08:38:15.000Z</time>
      </trkpt>
      <trkpt lat="49.37496" lon="0.25255">
        <ele>108.9</ele>
        <time>2020-02-06T08:38:27.000Z</time>
      </trkpt>
      <trkpt lat="49.37499" lon="0.25276">
        <ele>108.2</ele>
        <time>2020-02-06T08:38:37.000Z</time>
      </trkpt>
      <trkpt lat="49.37503" lon="0.25298">
        <ele>107.9</ele>
        <time>2020-02-06T08:38:48.000Z</time>
      </trkpt>
      <trkpt lat="49.37503" lon="0.25321">
        <ele>107.1</ele>
        <time>2020-02-06T08:38:58.000Z</time>
      </trkpt>
      <trkpt lat="49.37502" lon="0.25343">
        <ele>106.8</ele>
        <time>2020-02-06T08:39:07.000Z</time>
      </trkpt>
      <trkpt lat="49.37506" lon="0.25363">
        <ele>106.6</ele>
        <time>2020-02-06T08:39:19.000Z</time>
      </trkpt>
      <trkpt lat="49.37514" lon="0.25381">
        <ele>106.4</ele>
        <time>2020-02-06T08:39:32.000Z</time>
      </trkpt>
      <trkpt lat="49.37515" lon="0.25402">
        <ele>106.6</ele>
        <time>2020-02-06T08:39:41.000Z</time>
      </trkpt>
      <trkpt lat="49.37511" lon="0.25422">
        <ele>106.7</ele>
        <time>2020-02-06T08:39:49.000Z</time>
      </trkpt>
      <trkpt lat="49.37511" lon="0.25445">
        <ele>106.5</ele>
        <time>2020-02-06T08:40:01.000Z</time>
      </trkpt>
      <trkpt lat="49.37513" lon="0.25466">
        <ele>106.4</ele>
        <time>2020-02-06T08:40:11.000Z</time>
      </trkpt>
      <trkpt lat="49.37518" lon="0.25486">
        <ele>106.1</ele>
        <time>2020-02-06T08:40:22.000Z</time>
      </trkpt>
      <trkpt lat="49.37521" lon="0.25507">
        <ele>105.8</ele>
        <time>2020-02-06T08:40:33.000Z</time>
      </trkpt>
      <trkpt lat="49.37524" lon="0.25527">
        <ele>105.6</ele>
        <time>2020-02-06T08:40:43.000Z</time>
      </trkpt>
      <trkpt lat="49.37529" lon="0.25548">
        <ele>105.6</ele>
        <time>2020-02-06T08:40:54.000Z</time>
      </trkpt>
      <trkpt lat="49.3754" lon="0.25562">
        <ele>106</ele>
        <time>2020-02-06T08:41:05.000Z</time>
      </trkpt>
      <trkpt lat="49.37553" lon="0.25572">
        <ele>106.5</ele>
        <time>2020-02-06T08:41:18.000Z</time>
      </trkpt>
      <trkpt lat="49.37568" lon="0.25575">
        <ele>106.6</ele>
        <time>2020-02-06T08:41:27.000Z</time>
      </trkpt>
      <trkpt lat="49.37581" lon="0.2558">
        <ele>107</ele>
        <time>2020-02-06T08:41:36.000Z</time>
      </trkpt>
      <trkpt lat="49.37593" lon="0.2559">
        <ele>107.7</ele>
        <time>2020-02-06T08:41:48.000Z</time>
      </trkpt>
      <trkpt lat="49.37606" lon="0.25602">
        <ele>107.6</ele>
        <time>2020-02-06T08:41:58.000Z</time>
      </trkpt>
      <trkpt lat="49.37617" lon="0.25615">
        <ele>108</ele>
        <time>2020-02-06T08:42:12.000Z</time>
      </trkpt>
      <trkpt lat="49.37629" lon="0.25625">
        <ele>108.7</ele>
        <time>2020-02-06T08:42:22.000Z</time>
      </trkpt>
      <trkpt lat="49.37639" lon="0.25639">
        <ele>109</ele>
        <time>2020-02-06T08:42:35.000Z</time>
      </trkpt>
      <trkpt lat="49.37653" lon="0.25645">
        <ele>109.2</ele>
        <time>2020-02-06T08:42:45.000Z</time>
      </trkpt>
      <trkpt lat="49.37667" lon="0.25652">
        <ele>108.9</ele>
        <time>2020-02-06T08:42:56.000Z</time>
      </trkpt>
      <trkpt lat="49.37678" lon="0.25665">
        <ele>108.5</ele>
        <time>2020-02-06T08:43:10.000Z</time>
      </trkpt>
      <trkpt lat="49.37692" lon="0.25672">
        <ele>108.1</ele>
        <time>2020-02-06T08:43:19.000Z</time>
      </trkpt>
      <trkpt lat="49.37706" lon="0.25678">
        <ele>108</ele>
        <time>2020-02-06T08:43:31.000Z</time>
      </trkpt>
      <trkpt lat="49.3772" lon="0.25683">
        <ele>108.1</ele>
        <time>2020-02-06T08:43:43.000Z</time>
      </trkpt>
      <trkpt lat="49.37734" lon="0.25693">
        <ele>108.1</ele>
        <time>2020-02-06T08:43:58.000Z</time>
      </trkpt>
      <trkpt lat="49.37748" lon="0.25695">
        <ele>108.1</ele>
        <time>2020-02-06T08:44:08.000Z</time>
      </trkpt>
      <trkpt lat="49.37762" lon="0.25698">
        <ele>108.1</ele>
        <time>2020-02-06T08:44:16.000Z</time>
      </trkpt>
      <trkpt lat="49.37775" lon="0.25702">
        <ele>108.3</ele>
        <time>2020-02-06T08:44:27.000Z</time>
      </trkpt>
      <trkpt lat="49.37789" lon="0.25707">
        <ele>108.4</ele>
        <time>2020-02-06T08:44:41.000Z</time>
      </trkpt>
      <trkpt lat="49.37802" lon="0.2571">
        <ele>108.5</ele>
        <time>2020-02-06T08:44:47.000Z</time>
      </trkpt>
      <trkpt lat="49.37818" lon="0.25713">
        <ele>108.9</ele>
        <time>2020-02-06T08:44:58.000Z</time>
      </trkpt>
      <trkpt lat="49.37832" lon="0.25715">
        <ele>108.9</ele>
        <time>2020-02-06T08:45:08.000Z</time>
      </trkpt>
      <trkpt lat="49.37846" lon="0.25718">
        <ele>109.4</ele>
        <time>2020-02-06T08:45:21.000Z</time>
      </trkpt>
      <trkpt lat="49.3786" lon="0.2572">
        <ele>109.4</ele>
        <time>2020-02-06T08:45:35.000Z</time>
      </trkpt>
      <trkpt lat="49.37877" lon="0.25727">
        <ele>110.1</ele>
        <time>2020-02-06T08:45:51.000Z</time>
      </trkpt>
      <trkpt lat="49.37892" lon="0.25732">
        <ele>110.2</ele>
        <time>2020-02-06T08:46:00.000Z</time>
      </trkpt>
      <trkpt lat="49.37905" lon="0.2574">
        <ele>110.5</ele>
        <time>2020-02-06T08:46:11.000Z</time>
      </trkpt>
      <trkpt lat="49.37914" lon="0.25756">
        <ele>110.1</ele>
        <time>2020-02-06T08:46:27.000Z</time>
      </trkpt>
      <trkpt lat="49.37925" lon="0.2577">
        <ele>109.2</ele>
        <time>2020-02-06T08:46:42.000Z</time>
      </trkpt>
      <trkpt lat="49.3794" lon="0.25769">
        <ele>109</ele>
        <time>2020-02-06T08:46:51.000Z</time>
      </trkpt>
      <trkpt lat="49.37953" lon="0.25777">
        <ele>109</ele>
        <time>2020-02-06T08:47:03.000Z</time>
      </trkpt>
      <trkpt lat="49.37965" lon="0.25788">
        <ele>109.3</ele>
        <time>2020-02-06T08:47:18.000Z</time>
      </trkpt>
      <trkpt lat="49.37978" lon="0.25796">
        <ele>109.6</ele>
        <time>2020-02-06T08:47:29.000Z</time>
      </trkpt>
      <trkpt lat="49.37992" lon="0.25803">
        <ele>109.9</ele>
        <time>2020-02-06T08:47:38.000Z</time>
      </trkpt>
      <trkpt lat="49.38004" lon="0.25814">
        <ele>110.1</ele>
        <time>2020-02-06T08:47:47.000Z</time>
      </trkpt>
      <trkpt lat="49.38016" lon="0.25824">
        <ele>109.9</ele>
        <time>2020-02-06T08:47:59.000Z</time>
      </trkpt>
      <trkpt lat="49.38031" lon="0.2583">
        <ele>110.5</ele>
        <time>2020-02-06T08:48:09.000Z</time>
      </trkpt>
      <trkpt lat="49.38044" lon="0.25841">
        <ele>108</ele>
        <time>2020-02-06T08:48:20.000Z</time>
      </trkpt>
      <trkpt lat="49.38056" lon="0.25852">
        <ele>106.6</ele>
        <time>2020-02-06T08:48:30.000Z</time>
      </trkpt>
      <trkpt lat="49.38068" lon="0.25863">
        <ele>106.6</ele>
        <time>2020-02-06T08:48:41.000Z</time>
      </trkpt>
      <trkpt lat="49.38081" lon="0.25873">
        <ele>105.8</ele>
        <time>2020-02-06T08:48:52.000Z</time>
      </trkpt>
      <trkpt lat="49.38094" lon="0.25881">
        <ele>106.4</ele>
        <time>2020-02-06T08:49:00.000Z</time>
      </trkpt>
      <trkpt lat="49.38105" lon="0.25893">
        <ele>108.2</ele>
        <time>2020-02-06T08:49:14.000Z</time>
      </trkpt>
      <trkpt lat="49.38115" lon="0.25908">
        <ele>108.8</ele>
        <time>2020-02-06T08:49:28.000Z</time>
      </trkpt>
      <trkpt lat="49.38125" lon="0.25923">
        <ele>109.2</ele>
        <time>2020-02-06T08:49:43.000Z</time>
      </trkpt>
      <trkpt lat="49.38138" lon="0.25933">
        <ele>109.5</ele>
        <time>2020-02-06T08:49:55.000Z</time>
      </trkpt>
      <trkpt lat="49.3815" lon="0.25943">
        <ele>109.4</ele>
        <time>2020-02-06T08:50:06.000Z</time>
      </trkpt>
      <trkpt lat="49.38161" lon="0.25957">
        <ele>109.8</ele>
        <time>2020-02-06T08:50:17.000Z</time>
      </trkpt>
      <trkpt lat="49.38173" lon="0.2597">
        <ele>110.1</ele>
        <time>2020-02-06T08:50:31.000Z</time>
      </trkpt>
      <trkpt lat="49.38183" lon="0.25984">
        <ele>110.3</ele>
        <time>2020-02-06T08:50:42.000Z</time>
      </trkpt>
      <trkpt lat="49.38196" lon="0.25996">
        <ele>110</ele>
        <time>2020-02-06T08:50:53.000Z</time>
      </trkpt>
      <trkpt lat="49.38207" lon="0.26009">
        <ele>109.8</ele>
        <time>2020-02-06T08:51:03.000Z</time>
      </trkpt>
      <trkpt lat="49.38218" lon="0.26024">
        <ele>110</ele>
        <time>2020-02-06T08:51:12.000Z</time>
      </trkpt>
      <trkpt lat="49.38225" lon="0.26041">
        <ele>110.2</ele>
        <time>2020-02-06T08:51:22.000Z</time>
      </trkpt>
      <trkpt lat="49.38232" lon="0.26061">
        <ele>110.7</ele>
        <time>2020-02-06T08:51:33.000Z</time>
      </trkpt>
      <trkpt lat="49.38238" lon="0.2608">
        <ele>110.9</ele>
        <time>2020-02-06T08:51:44.000Z</time>
      </trkpt>
      <trkpt lat="49.38246" lon="0.26097">
        <ele>110.6</ele>
        <time>2020-02-06T08:51:54.000Z</time>
      </trkpt>
      <trkpt lat="49.38252" lon="0.26117">
        <ele>110.3</ele>
        <time>2020-02-06T08:52:06.000Z</time>
      </trkpt>
      <trkpt lat="49.38259" lon="0.26135">
        <ele>109.7</ele>
        <time>2020-02-06T08:52:17.000Z</time>
      </trkpt>
      <trkpt lat="49.3827" lon="0.26151">
        <ele>109.4</ele>
        <time>2020-02-06T08:52:28.000Z</time>
      </trkpt>
      <trkpt lat="49.38275" lon="0.26172">
        <ele>109</ele>
        <time>2020-02-06T08:52:41.000Z</time>
      </trkpt>
      <trkpt lat="49.3828" lon="0.26193">
        <ele>108.3</ele>
        <time>2020-02-06T08:52:53.000Z</time>
      </trkpt>
      <trkpt lat="49.38284" lon="0.26213">
        <ele>107.1</ele>
        <time>2020-02-06T08:53:05.000Z</time>
      </trkpt>
      <trkpt lat="49.38288" lon="0.26235">
        <ele>105.6</ele>
        <time>2020-02-06T08:53:16.000Z</time>
      </trkpt>
      <trkpt lat="49.38287" lon="0.26258">
        <ele>103.7</ele>
        <time>2020-02-06T08:53:28.000Z</time>
      </trkpt>
      <trkpt lat="49.38287" lon="0.26279">
        <ele>100.9</ele>
        <time>2020-02-06T08:53:44.000Z</time>
      </trkpt>
      <trkpt lat="49.3829" lon="0.263">
        <ele>97.7</ele>
        <time>2020-02-06T08:53:59.000Z</time>
      </trkpt>
      <trkpt lat="49.383" lon="0.26316">
        <ele>95.3</ele>
        <time>2020-02-06T08:54:11.000Z</time>
      </trkpt>
      <trkpt lat="49.38307" lon="0.26334">
        <ele>92.2</ele>
        <time>2020-02-06T08:54:26.000Z</time>
      </trkpt>
      <trkpt lat="49.38313" lon="0.26354">
        <ele>89.9</ele>
        <time>2020-02-06T08:54:42.000Z</time>
      </trkpt>
      <trkpt lat="49.38319" lon="0.26374">
        <ele>85.9</ele>
        <time>2020-02-06T08:54:53.000Z</time>
      </trkpt>
      <trkpt lat="49.38325" lon="0.26394">
        <ele>84</ele>
        <time>2020-02-06T08:55:06.000Z</time>
      </trkpt>
      <trkpt lat="49.38329" lon="0.26414">
        <ele>81.8</ele>
        <time>2020-02-06T08:55:20.000Z</time>
      </trkpt>
      <trkpt lat="49.38338" lon="0.2643">
        <ele>79.3</ele>
        <time>2020-02-06T08:55:36.000Z</time>
      </trkpt>
      <trkpt lat="49.38348" lon="0.26445">
        <ele>77.8</ele>
        <time>2020-02-06T08:55:47.000Z</time>
      </trkpt>
      <trkpt lat="49.38359" lon="0.26458">
        <ele>75.8</ele>
        <time>2020-02-06T08:55:58.000Z</time>
      </trkpt>
      <trkpt lat="49.3837" lon="0.26474">
        <ele>73.6</ele>
        <time>2020-02-06T08:56:12.000Z</time>
      </trkpt>
      <trkpt lat="49.3838" lon="0.26487">
        <ele>71.7</ele>
        <time>2020-02-06T08:56:24.000Z</time>
      </trkpt>
      <trkpt lat="49.3839" lon="0.26502">
        <ele>69.7</ele>
        <time>2020-02-06T08:56:37.000Z</time>
      </trkpt>
      <trkpt lat="49.384" lon="0.26516">
        <ele>67.3</ele>
        <time>2020-02-06T08:56:51.000Z</time>
      </trkpt>
      <trkpt lat="49.38412" lon="0.26527">
        <ele>65.1</ele>
        <time>2020-02-06T08:57:05.000Z</time>
      </trkpt>
      <trkpt lat="49.38422" lon="0.26543">
        <ele>62.1</ele>
        <time>2020-02-06T08:57:22.000Z</time>
      </trkpt>
      <trkpt lat="49.38433" lon="0.26558">
        <ele>59.7</ele>
        <time>2020-02-06T08:57:36.000Z</time>
      </trkpt>
      <trkpt lat="49.38445" lon="0.26569">
        <ele>57.6</ele>
        <time>2020-02-06T08:57:47.000Z</time>
      </trkpt>
      <trkpt lat="49.38456" lon="0.26582">
        <ele>56.4</ele>
        <time>2020-02-06T08:58:02.000Z</time>
      </trkpt>
      <trkpt lat="49.3847" lon="0.26589">
        <ele>55.7</ele>
        <time>2020-02-06T08:58:12.000Z</time>
      </trkpt>
      <trkpt lat="49.38481" lon="0.26602">
        <ele>54.6</ele>
        <time>2020-02-06T08:58:28.000Z</time>
      </trkpt>
      <trkpt lat="49.38494" lon="0.26609">
        <ele>54.4</ele>
        <time>2020-02-06T08:58:52.000Z</time>
      </trkpt>
      <trkpt lat="49.38504" lon="0.26624">
        <ele>52.3</ele>
        <time>2020-02-06T09:02:36.000Z</time>
      </trkpt>
      <trkpt lat="49.38517" lon="0.2663">
        <ele>52.6</ele>
        <time>2020-02-06T09:02:56.000Z</time>
      </trkpt>
      <trkpt lat="49.38531" lon="0.26627">
        <ele>52.7</ele>
        <time>2020-02-06T09:03:09.000Z</time>
      </trkpt>
      <trkpt lat="49.38545" lon="0.26628">
        <ele>52.6</ele>
        <time>2020-02-06T09:03:23.000Z</time>
      </trkpt>
      <trkpt lat="49.38559" lon="0.26631">
        <ele>52.8</ele>
        <time>2020-02-06T09:03:37.000Z</time>
      </trkpt>
      <trkpt lat="49.38573" lon="0.26634">
        <ele>52.6</ele>
        <time>2020-02-06T09:03:49.000Z</time>
      </trkpt>
      <trkpt lat="49.38587" lon="0.26639">
        <ele>52.5</ele>
        <time>2020-02-06T09:03:59.000Z</time>
      </trkpt>
      <trkpt lat="49.386" lon="0.2665">
        <ele>51.7</ele>
        <time>2020-02-06T09:04:11.000Z</time>
      </trkpt>
      <trkpt lat="49.38612" lon="0.26659">
        <ele>50.7</ele>
        <time>2020-02-06T09:04:22.000Z</time>
      </trkpt>
      <trkpt lat="49.38627" lon="0.26664">
        <ele>49.3</ele>
        <time>2020-02-06T09:04:33.000Z</time>
      </trkpt>
      <trkpt lat="49.3864" lon="0.26672">
        <ele>48.2</ele>
        <time>2020-02-06T09:04:46.000Z</time>
      </trkpt>
      <trkpt lat="49.38652" lon="0.26681">
        <ele>47</ele>
        <time>2020-02-06T09:05:00.000Z</time>
      </trkpt>
      <trkpt lat="49.38666" lon="0.26687">
        <ele>46</ele>
        <time>2020-02-06T09:05:14.000Z</time>
      </trkpt>
      <trkpt lat="49.3868" lon="0.26689">
        <ele>45.4</ele>
        <time>2020-02-06T09:05:27.000Z</time>
      </trkpt>
      <trkpt lat="49.38694" lon="0.26693">
        <ele>45.7</ele>
        <time>2020-02-06T09:05:35.000Z</time>
      </trkpt>
      <trkpt lat="49.38685" lon="0.26709">
        <ele>39.8</ele>
        <time>2020-02-06T09:06:02.000Z</time>
      </trkpt>
      <trkpt lat="49.38677" lon="0.26727">
        <ele>37.2</ele>
        <time>2020-02-06T09:06:30.000Z</time>
      </trkpt>
      <trkpt lat="49.38667" lon="0.26741">
        <ele>34.8</ele>
        <time>2020-02-06T09:06:47.000Z</time>
      </trkpt>
      <trkpt lat="49.38657" lon="0.26757">
        <ele>32.5</ele>
        <time>2020-02-06T09:07:01.000Z</time>
      </trkpt>
      <trkpt lat="49.38644" lon="0.26767">
        <ele>30.8</ele>
        <time>2020-02-06T09:07:13.000Z</time>
      </trkpt>
      <trkpt lat="49.38631" lon="0.26776">
        <ele>28.9</ele>
        <time>2020-02-06T09:07:27.000Z</time>
      </trkpt>
      <trkpt lat="49.38626" lon="0.26796">
        <ele>26.6</ele>
        <time>2020-02-06T09:07:52.000Z</time>
      </trkpt>
      <trkpt lat="49.38628" lon="0.26816">
        <ele>26.6</ele>
        <time>2020-02-06T09:08:17.000Z</time>
      </trkpt>
      <trkpt lat="49.38626" lon="0.26839">
        <ele>26.5</ele>
        <time>2020-02-06T09:08:33.000Z</time>
      </trkpt>
      <trkpt lat="49.38626" lon="0.2686">
        <ele>27.2</ele>
        <time>2020-02-06T09:08:47.000Z</time>
      </trkpt>
      <trkpt lat="49.38623" lon="0.26881">
        <ele>28.4</ele>
        <time>2020-02-06T09:09:00.000Z</time>
      </trkpt>
      <trkpt lat="49.38621" lon="0.26902">
        <ele>30</ele>
        <time>2020-02-06T09:09:13.000Z</time>
      </trkpt>
      <trkpt lat="49.38619" lon="0.26924">
        <ele>31.4</ele>
        <time>2020-02-06T09:09:25.000Z</time>
      </trkpt>
      <trkpt lat="49.38616" lon="0.26945">
        <ele>32.6</ele>
        <time>2020-02-06T09:09:37.000Z</time>
      </trkpt>
      <trkpt lat="49.38617" lon="0.26966">
        <ele>34</ele>
        <time>2020-02-06T09:09:50.000Z</time>
      </trkpt>
      <trkpt lat="49.38614" lon="0.26988">
        <ele>35.3</ele>
        <time>2020-02-06T09:10:01.000Z</time>
      </trkpt>
      <trkpt lat="49.38613" lon="0.27009">
        <ele>36</ele>
        <time>2020-02-06T09:10:12.000Z</time>
      </trkpt>
      <trkpt lat="49.38609" lon="0.27029">
        <ele>38.3</ele>
        <time>2020-02-06T09:10:27.000Z</time>
      </trkpt>
      <trkpt lat="49.38605" lon="0.27052">
        <ele>40.6</ele>
        <time>2020-02-06T09:10:43.000Z</time>
      </trkpt>
      <trkpt lat="49.386" lon="0.27073">
        <ele>42.8</ele>
        <time>2020-02-06T09:10:58.000Z</time>
      </trkpt>
      <trkpt lat="49.38597" lon="0.27095">
        <ele>44.7</ele>
        <time>2020-02-06T09:11:12.000Z</time>
      </trkpt>
      <trkpt lat="49.38593" lon="0.27116">
        <ele>46.1</ele>
        <time>2020-02-06T09:11:23.000Z</time>
      </trkpt>
      <trkpt lat="49.38589" lon="0.27138">
        <ele>47.1</ele>
        <time>2020-02-06T09:11:38.000Z</time>
      </trkpt>
      <trkpt lat="49.38587" lon="0.27159">
        <ele>49.9</ele>
        <time>2020-02-06T09:11:54.000Z</time>
      </trkpt>
      <trkpt lat="49.38581" lon="0.27178">
        <ele>52.8</ele>
        <time>2020-02-06T09:12:11.000Z</time>
      </trkpt>
      <trkpt lat="49.38568" lon="0.27188">
        <ele>54.2</ele>
        <time>2020-02-06T09:12:28.000Z</time>
      </trkpt>
      <trkpt lat="49.38553" lon="0.27185">
        <ele>55.8</ele>
        <time>2020-02-06T09:14:02.000Z</time>
      </trkpt>
      <trkpt lat="49.38539" lon="0.27179">
        <ele>55.5</ele>
        <time>2020-02-06T09:14:14.000Z</time>
      </trkpt>
      <trkpt lat="49.38527" lon="0.27168">
        <ele>55.3</ele>
        <time>2020-02-06T09:14:28.000Z</time>
      </trkpt>
      <trkpt lat="49.38515" lon="0.27158">
        <ele>55.4</ele>
        <time>2020-02-06T09:14:38.000Z</time>
      </trkpt>
      <trkpt lat="49.38503" lon="0.27146">
        <ele>56</ele>
        <time>2020-02-06T09:14:53.000Z</time>
      </trkpt>
      <trkpt lat="49.3849" lon="0.27137">
        <ele>56.6</ele>
        <time>2020-02-06T09:15:08.000Z</time>
      </trkpt>
      <trkpt lat="49.38477" lon="0.27132">
        <ele>57.5</ele>
        <time>2020-02-06T09:15:23.000Z</time>
      </trkpt>
      <trkpt lat="49.38463" lon="0.27133">
        <ele>57.9</ele>
        <time>2020-02-06T09:15:37.000Z</time>
      </trkpt>
      <trkpt lat="49.38449" lon="0.27136">
        <ele>58.7</ele>
        <time>2020-02-06T09:15:55.000Z</time>
      </trkpt>
      <trkpt lat="49.38438" lon="0.2715">
        <ele>60.1</ele>
        <time>2020-02-06T09:16:12.000Z</time>
      </trkpt>
      <trkpt lat="49.38425" lon="0.27156">
        <ele>60.9</ele>
        <time>2020-02-06T09:16:22.000Z</time>
      </trkpt>
      <trkpt lat="49.38411" lon="0.27155">
        <ele>62.2</ele>
        <time>2020-02-06T09:16:36.000Z</time>
      </trkpt>
      <trkpt lat="49.38397" lon="0.27158">
        <ele>63.3</ele>
        <time>2020-02-06T09:16:52.000Z</time>
      </trkpt>
      <trkpt lat="49.38383" lon="0.27163">
        <ele>64.3</ele>
        <time>2020-02-06T09:17:07.000Z</time>
      </trkpt>
      <trkpt lat="49.38369" lon="0.27162">
        <ele>65.5</ele>
        <time>2020-02-06T09:17:25.000Z</time>
      </trkpt>
      <trkpt lat="49.38355" lon="0.27168">
        <ele>67</ele>
        <time>2020-02-06T09:17:38.000Z</time>
      </trkpt>
      <trkpt lat="49.38341" lon="0.27171">
        <ele>67.7</ele>
        <time>2020-02-06T09:17:50.000Z</time>
      </trkpt>
      <trkpt lat="49.38327" lon="0.27176">
        <ele>68.2</ele>
        <time>2020-02-06T09:18:01.000Z</time>
      </trkpt>
      <trkpt lat="49.38313" lon="0.27179">
        <ele>68.7</ele>
        <time>2020-02-06T09:18:15.000Z</time>
      </trkpt>
      <trkpt lat="49.38299" lon="0.27184">
        <ele>69</ele>
        <time>2020-02-06T09:18:26.000Z</time>
      </trkpt>
      <trkpt lat="49.38285" lon="0.27185">
        <ele>69.6</ele>
        <time>2020-02-06T09:18:40.000Z</time>
      </trkpt>
      <trkpt lat="49.38271" lon="0.27187">
        <ele>70.3</ele>
        <time>2020-02-06T09:18:54.000Z</time>
      </trkpt>
      <trkpt lat="49.38256" lon="0.27187">
        <ele>71.5</ele>
        <time>2020-02-06T09:19:10.000Z</time>
      </trkpt>
      <trkpt lat="49.38242" lon="0.2718">
        <ele>72.4</ele>
        <time>2020-02-06T09:19:23.000Z</time>
      </trkpt>
      <trkpt lat="49.3823" lon="0.27172">
        <ele>74.4</ele>
        <time>2020-02-06T09:19:43.000Z</time>
      </trkpt>
      <trkpt lat="49.38216" lon="0.27172">
        <ele>75.4</ele>
        <time>2020-02-06T09:19:54.000Z</time>
      </trkpt>
      <trkpt lat="49.38202" lon="0.27167">
        <ele>77.2</ele>
        <time>2020-02-06T09:20:12.000Z</time>
      </trkpt>
      <trkpt lat="49.3819" lon="0.27155">
        <ele>78.1</ele>
        <time>2020-02-06T09:20:26.000Z</time>
      </trkpt>
      <trkpt lat="49.38177" lon="0.27148">
        <ele>78.6</ele>
        <time>2020-02-06T09:20:38.000Z</time>
      </trkpt>
      <trkpt lat="49.38166" lon="0.27134">
        <ele>79.1</ele>
        <time>2020-02-06T09:20:52.000Z</time>
      </trkpt>
      <trkpt lat="49.38152" lon="0.27125">
        <ele>79.7</ele>
        <time>2020-02-06T09:21:06.000Z</time>
      </trkpt>
      <trkpt lat="49.38138" lon="0.27121">
        <ele>80.1</ele>
        <time>2020-02-06T09:21:18.000Z</time>
      </trkpt>
      <trkpt lat="49.38125" lon="0.27116">
        <ele>81.2</ele>
        <time>2020-02-06T09:21:30.000Z</time>
      </trkpt>
      <trkpt lat="49.38112" lon="0.2711">
        <ele>82.7</ele>
        <time>2020-02-06T09:21:46.000Z</time>
      </trkpt>
      <trkpt lat="49.38099" lon="0.27103">
        <ele>84.3</ele>
        <time>2020-02-06T09:22:00.000Z</time>
      </trkpt>
      <trkpt lat="49.38086" lon="0.27096">
        <ele>85.5</ele>
        <time>2020-02-06T09:22:12.000Z</time>
      </trkpt>
      <trkpt lat="49.38073" lon="0.27088">
        <ele>87.1</ele>
        <time>2020-02-06T09:22:23.000Z</time>
      </trkpt>
      <trkpt lat="49.38059" lon="0.27087">
        <ele>86.1</ele>
        <time>2020-02-06T09:22:37.000Z</time>
      </trkpt>
      <trkpt lat="49.38046" lon="0.27093">
        <ele>87</ele>
        <time>2020-02-06T09:22:47.000Z</time>
      </trkpt>
      <trkpt lat="49.38032" lon="0.27095">
        <ele>89.5</ele>
        <time>2020-02-06T09:22:59.000Z</time>
      </trkpt>
      <trkpt lat="49.38018" lon="0.27094">
        <ele>92.8</ele>
        <time>2020-02-06T09:23:16.000Z</time>
      </trkpt>
      <trkpt lat="49.38005" lon="0.27089">
        <ele>95.3</ele>
        <time>2020-02-06T09:23:30.000Z</time>
      </trkpt>
      <trkpt lat="49.37991" lon="0.27085">
        <ele>98</ele>
        <time>2020-02-06T09:23:46.000Z</time>
      </trkpt>
      <trkpt lat="49.37977" lon="0.27082">
        <ele>99.8</ele>
        <time>2020-02-06T09:23:56.000Z</time>
      </trkpt>
      <trkpt lat="49.37962" lon="0.27082">
        <ele>101.7</ele>
        <time>2020-02-06T09:24:09.000Z</time>
      </trkpt>
      <trkpt lat="49.37948" lon="0.27084">
        <ele>103.3</ele>
        <time>2020-02-06T09:24:24.000Z</time>
      </trkpt>
      <trkpt lat="49.37935" lon="0.27079">
        <ele>104.6</ele>
        <time>2020-02-06T09:24:35.000Z</time>
      </trkpt>
      <trkpt lat="49.37921" lon="0.27077">
        <ele>106.3</ele>
        <time>2020-02-06T09:24:50.000Z</time>
      </trkpt>
      <trkpt lat="49.37907" lon="0.27075">
        <ele>107.6</ele>
        <time>2020-02-06T09:25:06.000Z</time>
      </trkpt>
      <trkpt lat="49.37893" lon="0.2708">
        <ele>108.3</ele>
        <time>2020-02-06T09:25:18.000Z</time>
      </trkpt>
      <trkpt lat="49.3788" lon="0.27074">
        <ele>109.4</ele>
        <time>2020-02-06T09:25:35.000Z</time>
      </trkpt>
      <trkpt lat="49.37895" lon="0.27072">
        <ele>108</ele>
        <time>2020-02-06T09:39:44.000Z</time>
      </trkpt>
      <trkpt lat="49.37881" lon="0.27078">
        <ele>107.3</ele>
        <time>2020-02-06T09:41:26.000Z</time>
      </trkpt>
      <trkpt lat="49.37871" lon="0.27061">
        <ele>106.7</ele>
        <time>2020-02-06T09:44:45.000Z</time>
      </trkpt>
      <trkpt lat="49.3786" lon="0.27049">
        <ele>106.3</ele>
        <time>2020-02-06T09:44:59.000Z</time>
      </trkpt>
      <trkpt lat="49.37849" lon="0.27034">
        <ele>105.7</ele>
        <time>2020-02-06T09:45:10.000Z</time>
      </trkpt>
      <trkpt lat="49.37839" lon="0.27016">
        <ele>105.1</ele>
        <time>2020-02-06T09:45:20.000Z</time>
      </trkpt>
      <trkpt lat="49.37827" lon="0.27002">
        <ele>104.3</ele>
        <time>2020-02-06T09:45:32.000Z</time>
      </trkpt>
      <trkpt lat="49.37817" lon="0.26988">
        <ele>104.2</ele>
        <time>2020-02-06T09:45:43.000Z</time>
      </trkpt>
      <trkpt lat="49.37806" lon="0.26974">
        <ele>104.7</ele>
        <time>2020-02-06T09:45:55.000Z</time>
      </trkpt>
      <trkpt lat="49.37794" lon="0.26963">
        <ele>104.8</ele>
        <time>2020-02-06T09:46:08.000Z</time>
      </trkpt>
      <trkpt lat="49.37784" lon="0.26948">
        <ele>105.2</ele>
        <time>2020-02-06T09:46:20.000Z</time>
      </trkpt>
      <trkpt lat="49.37773" lon="0.26934">
        <ele>105.6</ele>
        <time>2020-02-06T09:46:31.000Z</time>
      </trkpt>
      <trkpt lat="49.37763" lon="0.26918">
        <ele>105.8</ele>
        <time>2020-02-06T09:46:41.000Z</time>
      </trkpt>
      <trkpt lat="49.37753" lon="0.26902">
        <ele>106.1</ele>
        <time>2020-02-06T09:46:53.000Z</time>
      </trkpt>
      <trkpt lat="49.37743" lon="0.26886">
        <ele>106</ele>
        <time>2020-02-06T09:47:03.000Z</time>
      </trkpt>
      <trkpt lat="49.37735" lon="0.26869">
        <ele>106.1</ele>
        <time>2020-02-06T09:47:13.000Z</time>
      </trkpt>
      <trkpt lat="49.37724" lon="0.26855">
        <ele>106.7</ele>
        <time>2020-02-06T09:47:26.000Z</time>
      </trkpt>
      <trkpt lat="49.37713" lon="0.26841">
        <ele>106.8</ele>
        <time>2020-02-06T09:47:36.000Z</time>
      </trkpt>
      <trkpt lat="49.37701" lon="0.26826">
        <ele>106.8</ele>
        <time>2020-02-06T09:47:49.000Z</time>
      </trkpt>
      <trkpt lat="49.3769" lon="0.26811">
        <ele>106.9</ele>
        <time>2020-02-06T09:48:02.000Z</time>
      </trkpt>
      <trkpt lat="49.37678" lon="0.26801">
        <ele>107.4</ele>
        <time>2020-02-06T09:48:14.000Z</time>
      </trkpt>
      <trkpt lat="49.37667" lon="0.26787">
        <ele>107.6</ele>
        <time>2020-02-06T09:48:23.000Z</time>
      </trkpt>
      <trkpt lat="49.37656" lon="0.26774">
        <ele>107.3</ele>
        <time>2020-02-06T09:48:33.000Z</time>
      </trkpt>
      <trkpt lat="49.37644" lon="0.26762">
        <ele>107.6</ele>
        <time>2020-02-06T09:48:45.000Z</time>
      </trkpt>
      <trkpt lat="49.37635" lon="0.26743">
        <ele>108.2</ele>
        <time>2020-02-06T09:48:57.000Z</time>
      </trkpt>
      <trkpt lat="49.37626" lon="0.26728">
        <ele>108.8</ele>
        <time>2020-02-06T09:49:08.000Z</time>
      </trkpt>
      <trkpt lat="49.37615" lon="0.26714">
        <ele>109.1</ele>
        <time>2020-02-06T09:49:19.000Z</time>
      </trkpt>
      <trkpt lat="49.37603" lon="0.26704">
        <ele>109.3</ele>
        <time>2020-02-06T09:49:31.000Z</time>
      </trkpt>
      <trkpt lat="49.37591" lon="0.2669">
        <ele>109.7</ele>
        <time>2020-02-06T09:49:44.000Z</time>
      </trkpt>
      <trkpt lat="49.37578" lon="0.26681">
        <ele>109.6</ele>
        <time>2020-02-06T09:49:54.000Z</time>
      </trkpt>
      <trkpt lat="49.37564" lon="0.26678">
        <ele>109.5</ele>
        <time>2020-02-06T09:50:07.000Z</time>
      </trkpt>
      <trkpt lat="49.37552" lon="0.26665">
        <ele>110.8</ele>
        <time>2020-02-06T09:50:23.000Z</time>
      </trkpt>
      <trkpt lat="49.37541" lon="0.26649">
        <ele>111</ele>
        <time>2020-02-06T09:50:35.000Z</time>
      </trkpt>
      <trkpt lat="49.37529" lon="0.26637">
        <ele>110.3</ele>
        <time>2020-02-06T09:50:52.000Z</time>
      </trkpt>
      <trkpt lat="49.37518" lon="0.26623">
        <ele>109.7</ele>
        <time>2020-02-06T09:51:06.000Z</time>
      </trkpt>
      <trkpt lat="49.37507" lon="0.2661">
        <ele>110</ele>
        <time>2020-02-06T09:51:15.000Z</time>
      </trkpt>
      <trkpt lat="49.37495" lon="0.26598">
        <ele>110</ele>
        <time>2020-02-06T09:51:23.000Z</time>
      </trkpt>
      <trkpt lat="49.37482" lon="0.26588">
        <ele>109.9</ele>
        <time>2020-02-06T09:51:32.000Z</time>
      </trkpt>
      <trkpt lat="49.37468" lon="0.26581">
        <ele>109.8</ele>
        <time>2020-02-06T09:51:44.000Z</time>
      </trkpt>
      <trkpt lat="49.37454" lon="0.26574">
        <ele>109.5</ele>
        <time>2020-02-06T09:51:54.000Z</time>
      </trkpt>
      <trkpt lat="49.37441" lon="0.26571">
        <ele>109.5</ele>
        <time>2020-02-06T09:52:07.000Z</time>
      </trkpt>
      <trkpt lat="49.37429" lon="0.26562">
        <ele>109.7</ele>
        <time>2020-02-06T09:52:20.000Z</time>
      </trkpt>
      <trkpt lat="49.37414" lon="0.26556">
        <ele>109.4</ele>
        <time>2020-02-06T09:52:31.000Z</time>
      </trkpt>
      <trkpt lat="49.37401" lon="0.26548">
        <ele>109.8</ele>
        <time>2020-02-06T09:52:45.000Z</time>
      </trkpt>
      <trkpt lat="49.37387" lon="0.26542">
        <ele>109.6</ele>
        <time>2020-02-06T09:52:56.000Z</time>
      </trkpt>
      <trkpt lat="49.37373" lon="0.26533">
        <ele>109.7</ele>
        <time>2020-02-06T09:53:10.000Z</time>
      </trkpt>
      <trkpt lat="49.3736" lon="0.26526">
        <ele>109.3</ele>
        <time>2020-02-06T09:53:22.000Z</time>
      </trkpt>
      <trkpt lat="49.37346" lon="0.26511">
        <ele>108.4</ele>
        <time>2020-02-06T09:53:36.000Z</time>
      </trkpt>
      <trkpt lat="49.37332" lon="0.26512">
        <ele>108.8</ele>
        <time>2020-02-06T09:53:45.000Z</time>
      </trkpt>
      <trkpt lat="49.37319" lon="0.2652">
        <ele>110.2</ele>
        <time>2020-02-06T09:53:58.000Z</time>
      </trkpt>
      <trkpt lat="49.37307" lon="0.26535">
        <ele>110</ele>
        <time>2020-02-06T09:54:09.000Z</time>
      </trkpt>
      <trkpt lat="49.37299" lon="0.26552">
        <ele>107.5</ele>
        <time>2020-02-06T09:54:22.000Z</time>
      </trkpt>
      <trkpt lat="49.37304" lon="0.26573">
        <ele>111</ele>
        <time>2020-02-06T09:55:12.000Z</time>
      </trkpt>
      <trkpt lat="49.37309" lon="0.26594">
        <ele>111.7</ele>
        <time>2020-02-06T09:55:26.000Z</time>
      </trkpt>
      <trkpt lat="49.37314" lon="0.26615">
        <ele>112.3</ele>
        <time>2020-02-06T09:55:38.000Z</time>
      </trkpt>
      <trkpt lat="49.3732" lon="0.26635">
        <ele>113</ele>
        <time>2020-02-06T09:55:51.000Z</time>
      </trkpt>
      <trkpt lat="49.37323" lon="0.26656">
        <ele>113.8</ele>
        <time>2020-02-06T09:56:02.000Z</time>
      </trkpt>
      <trkpt lat="49.37326" lon="0.26678">
        <ele>114.4</ele>
        <time>2020-02-06T09:56:13.000Z</time>
      </trkpt>
      <trkpt lat="49.37329" lon="0.26699">
        <ele>115</ele>
        <time>2020-02-06T09:56:26.000Z</time>
      </trkpt>
      <trkpt lat="49.37332" lon="0.26721">
        <ele>115.2</ele>
        <time>2020-02-06T09:56:37.000Z</time>
      </trkpt>
      <trkpt lat="49.37333" lon="0.26743">
        <ele>115.6</ele>
        <time>2020-02-06T09:56:47.000Z</time>
      </trkpt>
      <trkpt lat="49.37335" lon="0.26764">
        <ele>115.8</ele>
        <time>2020-02-06T09:56:57.000Z</time>
      </trkpt>
      <trkpt lat="49.37338" lon="0.26785">
        <ele>116.3</ele>
        <time>2020-02-06T09:57:08.000Z</time>
      </trkpt>
      <trkpt lat="49.37339" lon="0.26807">
        <ele>116.3</ele>
        <time>2020-02-06T09:57:18.000Z</time>
      </trkpt>
      <trkpt lat="49.37342" lon="0.26828">
        <ele>116.6</ele>
        <time>2020-02-06T09:57:30.000Z</time>
      </trkpt>
      <trkpt lat="49.37344" lon="0.2685">
        <ele>117.1</ele>
        <time>2020-02-06T09:57:44.000Z</time>
      </trkpt>
      <trkpt lat="49.37343" lon="0.26873">
        <ele>117.4</ele>
        <time>2020-02-06T09:57:56.000Z</time>
      </trkpt>
      <trkpt lat="49.37342" lon="0.26894">
        <ele>117.4</ele>
        <time>2020-02-06T09:58:06.000Z</time>
      </trkpt>
      <trkpt lat="49.37337" lon="0.26914">
        <ele>117.7</ele>
        <time>2020-02-06T09:58:16.000Z</time>
      </trkpt>
      <trkpt lat="49.37336" lon="0.26936">
        <ele>117.8</ele>
        <time>2020-02-06T09:58:28.000Z</time>
      </trkpt>
      <trkpt lat="49.37335" lon="0.26958">
        <ele>118.4</ele>
        <time>2020-02-06T09:58:40.000Z</time>
      </trkpt>
      <trkpt lat="49.37333" lon="0.2698">
        <ele>118.4</ele>
        <time>2020-02-06T09:58:50.000Z</time>
      </trkpt>
      <trkpt lat="49.3733" lon="0.27001">
        <ele>118.2</ele>
        <time>2020-02-06T09:59:01.000Z</time>
      </trkpt>
      <trkpt lat="49.37328" lon="0.27023">
        <ele>118.5</ele>
        <time>2020-02-06T09:59:13.000Z</time>
      </trkpt>
      <trkpt lat="49.37325" lon="0.27044">
        <ele>118.6</ele>
        <time>2020-02-06T09:59:24.000Z</time>
      </trkpt>
      <trkpt lat="49.37322" lon="0.27065">
        <ele>119</ele>
        <time>2020-02-06T09:59:35.000Z</time>
      </trkpt>
      <trkpt lat="49.37319" lon="0.27086">
        <ele>119.3</ele>
        <time>2020-02-06T09:59:47.000Z</time>
      </trkpt>
      <trkpt lat="49.37316" lon="0.27107">
        <ele>119.6</ele>
        <time>2020-02-06T09:59:56.000Z</time>
      </trkpt>
      <trkpt lat="49.37313" lon="0.2713">
        <ele>119.6</ele>
        <time>2020-02-06T10:00:08.000Z</time>
      </trkpt>
      <trkpt lat="49.3731" lon="0.27151">
        <ele>119.6</ele>
        <time>2020-02-06T10:00:19.000Z</time>
      </trkpt>
      <trkpt lat="49.37308" lon="0.27174">
        <ele>119.8</ele>
        <time>2020-02-06T10:00:32.000Z</time>
      </trkpt>
      <trkpt lat="49.37306" lon="0.27195">
        <ele>119.5</ele>
        <time>2020-02-06T10:00:42.000Z</time>
      </trkpt>
      <trkpt lat="49.37304" lon="0.27216">
        <ele>120</ele>
        <time>2020-02-06T10:00:52.000Z</time>
      </trkpt>
      <trkpt lat="49.37302" lon="0.27237">
        <ele>120</ele>
        <time>2020-02-06T10:01:02.000Z</time>
      </trkpt>
      <trkpt lat="49.37299" lon="0.2726">
        <ele>120.4</ele>
        <time>2020-02-06T10:01:13.000Z</time>
      </trkpt>
      <trkpt lat="49.37287" lon="0.27271">
        <ele>120.2</ele>
        <time>2020-02-06T10:01:23.000Z</time>
      </trkpt>
      <trkpt lat="49.37273" lon="0.27279">
        <ele>120.2</ele>
        <time>2020-02-06T10:01:35.000Z</time>
      </trkpt>
      <trkpt lat="49.3726" lon="0.27286">
        <ele>120</ele>
        <time>2020-02-06T10:01:45.000Z</time>
      </trkpt>
      <trkpt lat="49.37248" lon="0.27297">
        <ele>119.9</ele>
        <time>2020-02-06T10:01:56.000Z</time>
      </trkpt>
      <trkpt lat="49.37236" lon="0.27308">
        <ele>119.4</ele>
        <time>2020-02-06T10:02:06.000Z</time>
      </trkpt>
      <trkpt lat="49.37224" lon="0.27321">
        <ele>118.7</ele>
        <time>2020-02-06T10:02:17.000Z</time>
      </trkpt>
      <trkpt lat="49.37213" lon="0.27334">
        <ele>119.4</ele>
        <time>2020-02-06T10:02:28.000Z</time>
      </trkpt>
      <trkpt lat="49.372" lon="0.27344">
        <ele>119.1</ele>
        <time>2020-02-06T10:02:40.000Z</time>
      </trkpt>
      <trkpt lat="49.37188" lon="0.27355">
        <ele>119.2</ele>
        <time>2020-02-06T10:02:51.000Z</time>
      </trkpt>
      <trkpt lat="49.37176" lon="0.27367">
        <ele>119.1</ele>
        <time>2020-02-06T10:03:03.000Z</time>
      </trkpt>
      <trkpt lat="49.37164" lon="0.27381">
        <ele>118.5</ele>
        <time>2020-02-06T10:03:14.000Z</time>
      </trkpt>
      <trkpt lat="49.37153" lon="0.27392">
        <ele>118</ele>
        <time>2020-02-06T10:03:24.000Z</time>
      </trkpt>
      <trkpt lat="49.37143" lon="0.27409">
        <ele>118</ele>
        <time>2020-02-06T10:03:36.000Z</time>
      </trkpt>
      <trkpt lat="49.37132" lon="0.27422">
        <ele>117.7</ele>
        <time>2020-02-06T10:03:48.000Z</time>
      </trkpt>
      <trkpt lat="49.37118" lon="0.27426">
        <ele>118.2</ele>
        <time>2020-02-06T10:04:00.000Z</time>
      </trkpt>
      <trkpt lat="49.37105" lon="0.27434">
        <ele>117.4</ele>
        <time>2020-02-06T10:04:14.000Z</time>
      </trkpt>
      <trkpt lat="49.37091" lon="0.2744">
        <ele>117.4</ele>
        <time>2020-02-06T10:04:25.000Z</time>
      </trkpt>
      <trkpt lat="49.37078" lon="0.27447">
        <ele>116.9</ele>
        <time>2020-02-06T10:04:37.000Z</time>
      </trkpt>
      <trkpt lat="49.37064" lon="0.27453">
        <ele>116.5</ele>
        <time>2020-02-06T10:04:49.000Z</time>
      </trkpt>
      <trkpt lat="49.3705" lon="0.27458">
        <ele>116.4</ele>
        <time>2020-02-06T10:05:00.000Z</time>
      </trkpt>
      <trkpt lat="49.37036" lon="0.27459">
        <ele>116</ele>
        <time>2020-02-06T10:05:13.000Z</time>
      </trkpt>
      <trkpt lat="49.37023" lon="0.27468">
        <ele>115.9</ele>
        <time>2020-02-06T10:05:23.000Z</time>
      </trkpt>
      <trkpt lat="49.37023" lon="0.27447">
        <ele>115.7</ele>
        <time>2020-02-06T10:05:47.000Z</time>
      </trkpt>
      <trkpt lat="49.37017" lon="0.27426">
        <ele>115.8</ele>
        <time>2020-02-06T10:05:59.000Z</time>
      </trkpt>
      <trkpt lat="49.37011" lon="0.27407">
        <ele>116.1</ele>
        <time>2020-02-06T10:06:12.000Z</time>
      </trkpt>
      <trkpt lat="49.37001" lon="0.27392">
        <ele>115.9</ele>
        <time>2020-02-06T10:06:23.000Z</time>
      </trkpt>
      <trkpt lat="49.36993" lon="0.27376">
        <ele>115.8</ele>
        <time>2020-02-06T10:06:32.000Z</time>
      </trkpt>
      <trkpt lat="49.36986" lon="0.27357">
        <ele>115.4</ele>
        <time>2020-02-06T10:06:42.000Z</time>
      </trkpt>
      <trkpt lat="49.36976" lon="0.27343">
        <ele>114.8</ele>
        <time>2020-02-06T10:06:54.000Z</time>
      </trkpt>
      <trkpt lat="49.36966" lon="0.27328">
        <ele>114.4</ele>
        <time>2020-02-06T10:07:05.000Z</time>
      </trkpt>
      <trkpt lat="49.36956" lon="0.27315">
        <ele>113.7</ele>
        <time>2020-02-06T10:07:15.000Z</time>
      </trkpt>
      <trkpt lat="49.36944" lon="0.27301">
        <ele>113</ele>
        <time>2020-02-06T10:07:25.000Z</time>
      </trkpt>
      <trkpt lat="49.36933" lon="0.27288">
        <ele>111.7</ele>
        <time>2020-02-06T10:07:38.000Z</time>
      </trkpt>
      <trkpt lat="49.36922" lon="0.27272">
        <ele>110.4</ele>
        <time>2020-02-06T10:07:50.000Z</time>
      </trkpt>
      <trkpt lat="49.36913" lon="0.27258">
        <ele>107.7</ele>
        <time>2020-02-06T10:08:03.000Z</time>
      </trkpt>
      <trkpt lat="49.36907" lon="0.27237">
        <ele>104.6</ele>
        <time>2020-02-06T10:08:20.000Z</time>
      </trkpt>
      <trkpt lat="49.36903" lon="0.27216">
        <ele>102.7</ele>
        <time>2020-02-06T10:08:33.000Z</time>
      </trkpt>
      <trkpt lat="49.36898" lon="0.27196">
        <ele>101.2</ele>
        <time>2020-02-06T10:08:43.000Z</time>
      </trkpt>
      <trkpt lat="49.36891" lon="0.27177">
        <ele>99.1</ele>
        <time>2020-02-06T10:08:56.000Z</time>
      </trkpt>
      <trkpt lat="49.36884" lon="0.27158">
        <ele>97.5</ele>
        <time>2020-02-06T10:09:10.000Z</time>
      </trkpt>
      <trkpt lat="49.36876" lon="0.27141">
        <ele>95.3</ele>
        <time>2020-02-06T10:09:23.000Z</time>
      </trkpt>
      <trkpt lat="49.36868" lon="0.27121">
        <ele>93.2</ele>
        <time>2020-02-06T10:09:40.000Z</time>
      </trkpt>
      <trkpt lat="49.3686" lon="0.27102">
        <ele>91.5</ele>
        <time>2020-02-06T10:09:50.000Z</time>
      </trkpt>
      <trkpt lat="49.36854" lon="0.27084">
        <ele>89.4</ele>
        <time>2020-02-06T10:10:01.000Z</time>
      </trkpt>
      <trkpt lat="49.36847" lon="0.27065">
        <ele>87.3</ele>
        <time>2020-02-06T10:10:13.000Z</time>
      </trkpt>
      <trkpt lat="49.3684" lon="0.27047">
        <ele>85.5</ele>
        <time>2020-02-06T10:10:24.000Z</time>
      </trkpt>
      <trkpt lat="49.36833" lon="0.27026">
        <ele>84.2</ele>
        <time>2020-02-06T10:10:35.000Z</time>
      </trkpt>
      <trkpt lat="49.36826" lon="0.27007">
        <ele>83.1</ele>
        <time>2020-02-06T10:10:44.000Z</time>
      </trkpt>
      <trkpt lat="49.36818" lon="0.26989">
        <ele>81.8</ele>
        <time>2020-02-06T10:10:57.000Z</time>
      </trkpt>
      <trkpt lat="49.3681" lon="0.26973">
        <ele>80.4</ele>
        <time>2020-02-06T10:11:09.000Z</time>
      </trkpt>
      <trkpt lat="49.36807" lon="0.26952">
        <ele>79.4</ele>
        <time>2020-02-06T10:11:26.000Z</time>
      </trkpt>
      <trkpt lat="49.36801" lon="0.26932">
        <ele>78.6</ele>
        <time>2020-02-06T10:11:41.000Z</time>
      </trkpt>
      <trkpt lat="49.36798" lon="0.26912">
        <ele>78.3</ele>
        <time>2020-02-06T10:11:53.000Z</time>
      </trkpt>
      <trkpt lat="49.36797" lon="0.26891">
        <ele>77.8</ele>
        <time>2020-02-06T10:12:06.000Z</time>
      </trkpt>
      <trkpt lat="49.36797" lon="0.26869">
        <ele>77.2</ele>
        <time>2020-02-06T10:12:58.000Z</time>
      </trkpt>
      <trkpt lat="49.36791" lon="0.26849">
        <ele>76.9</ele>
        <time>2020-02-06T10:13:12.000Z</time>
      </trkpt>
      <trkpt lat="49.36787" lon="0.26828">
        <ele>76.9</ele>
        <time>2020-02-06T10:13:26.000Z</time>
      </trkpt>
      <trkpt lat="49.36775" lon="0.26816">
        <ele>76.2</ele>
        <time>2020-02-06T10:13:41.000Z</time>
      </trkpt>
      <trkpt lat="49.36762" lon="0.26811">
        <ele>76.4</ele>
        <time>2020-02-06T10:13:51.000Z</time>
      </trkpt>
      <trkpt lat="49.36749" lon="0.26806">
        <ele>76.2</ele>
        <time>2020-02-06T10:14:02.000Z</time>
      </trkpt>
      <trkpt lat="49.36735" lon="0.268">
        <ele>76.3</ele>
        <time>2020-02-06T10:14:13.000Z</time>
      </trkpt>
      <trkpt lat="49.36721" lon="0.26795">
        <ele>76.5</ele>
        <time>2020-02-06T10:14:24.000Z</time>
      </trkpt>
      <trkpt lat="49.36708" lon="0.26789">
        <ele>77</ele>
        <time>2020-02-06T10:14:35.000Z</time>
      </trkpt>
      <trkpt lat="49.36695" lon="0.26783">
        <ele>77.1</ele>
        <time>2020-02-06T10:14:45.000Z</time>
      </trkpt>
      <trkpt lat="49.36682" lon="0.26776">
        <ele>77.6</ele>
        <time>2020-02-06T10:14:55.000Z</time>
      </trkpt>
      <trkpt lat="49.36669" lon="0.26768">
        <ele>78.2</ele>
        <time>2020-02-06T10:15:04.000Z</time>
      </trkpt>
      <trkpt lat="49.36655" lon="0.26761">
        <ele>78.8</ele>
        <time>2020-02-06T10:15:18.000Z</time>
      </trkpt>
      <trkpt lat="49.36642" lon="0.26753">
        <ele>79.5</ele>
        <time>2020-02-06T10:15:31.000Z</time>
      </trkpt>
      <trkpt lat="49.36629" lon="0.26745">
        <ele>79.7</ele>
        <time>2020-02-06T10:15:42.000Z</time>
      </trkpt>
      <trkpt lat="49.36616" lon="0.26736">
        <ele>80.7</ele>
        <time>2020-02-06T10:15:56.000Z</time>
      </trkpt>
      <trkpt lat="49.36602" lon="0.26728">
        <ele>81.8</ele>
        <time>2020-02-06T10:16:09.000Z</time>
      </trkpt>
      <trkpt lat="49.36589" lon="0.26719">
        <ele>83.6</ele>
        <time>2020-02-06T10:16:21.000Z</time>
      </trkpt>
      <trkpt lat="49.36581" lon="0.26703">
        <ele>85.3</ele>
        <time>2020-02-06T10:16:33.000Z</time>
      </trkpt>
      <trkpt lat="49.3657" lon="0.2669">
        <ele>85.8</ele>
        <time>2020-02-06T10:16:46.000Z</time>
      </trkpt>
      <trkpt lat="49.36559" lon="0.26675">
        <ele>85.7</ele>
        <time>2020-02-06T10:16:59.000Z</time>
      </trkpt>
      <trkpt lat="49.36548" lon="0.26663">
        <ele>85.8</ele>
        <time>2020-02-06T10:17:12.000Z</time>
      </trkpt>
      <trkpt lat="49.36536" lon="0.26651">
        <ele>86.1</ele>
        <time>2020-02-06T10:17:25.000Z</time>
      </trkpt>
      <trkpt lat="49.36526" lon="0.26638">
        <ele>86.5</ele>
        <time>2020-02-06T10:17:38.000Z</time>
      </trkpt>
      <trkpt lat="49.36513" lon="0.26628">
        <ele>86.7</ele>
        <time>2020-02-06T10:17:53.000Z</time>
      </trkpt>
      <trkpt lat="49.36502" lon="0.26615">
        <ele>86.7</ele>
        <time>2020-02-06T10:18:02.000Z</time>
      </trkpt>
      <trkpt lat="49.36492" lon="0.26602">
        <ele>86.6</ele>
        <time>2020-02-06T10:18:14.000Z</time>
      </trkpt>
      <trkpt lat="49.36479" lon="0.26592">
        <ele>86.4</ele>
        <time>2020-02-06T10:18:26.000Z</time>
      </trkpt>
      <trkpt lat="49.36468" lon="0.26581">
        <ele>86.2</ele>
        <time>2020-02-06T10:18:34.000Z</time>
      </trkpt>
      <trkpt lat="49.36456" lon="0.26568">
        <ele>85.9</ele>
        <time>2020-02-06T10:18:44.000Z</time>
      </trkpt>
      <trkpt lat="49.36442" lon="0.26563">
        <ele>85.7</ele>
        <time>2020-02-06T10:18:56.000Z</time>
      </trkpt>
      <trkpt lat="49.36427" lon="0.26563">
        <ele>86.4</ele>
        <time>2020-02-06T10:19:10.000Z</time>
      </trkpt>
      <trkpt lat="49.36414" lon="0.26556">
        <ele>86.7</ele>
        <time>2020-02-06T10:19:24.000Z</time>
      </trkpt>
      <trkpt lat="49.36401" lon="0.2655">
        <ele>85.1</ele>
        <time>2020-02-06T10:19:41.000Z</time>
      </trkpt>
      <trkpt lat="49.36387" lon="0.26543">
        <ele>82.9</ele>
        <time>2020-02-06T10:19:58.000Z</time>
      </trkpt>
      <trkpt lat="49.36374" lon="0.26538">
        <ele>81.8</ele>
        <time>2020-02-06T10:20:12.000Z</time>
      </trkpt>
      <trkpt lat="49.3636" lon="0.26535">
        <ele>80.3</ele>
        <time>2020-02-06T10:20:27.000Z</time>
      </trkpt>
      <trkpt lat="49.36347" lon="0.2653">
        <ele>79.4</ele>
        <time>2020-02-06T10:20:40.000Z</time>
      </trkpt>
      <trkpt lat="49.36334" lon="0.26519">
        <ele>79.2</ele>
        <time>2020-02-06T10:20:59.000Z</time>
      </trkpt>
      <trkpt lat="49.36324" lon="0.26504">
        <ele>79.5</ele>
        <time>2020-02-06T10:21:12.000Z</time>
      </trkpt>
      <trkpt lat="49.36316" lon="0.26487">
        <ele>80.2</ele>
        <time>2020-02-06T10:21:28.000Z</time>
      </trkpt>
      <trkpt lat="49.36309" lon="0.26469">
        <ele>81</ele>
        <time>2020-02-06T10:21:38.000Z</time>
      </trkpt>
      <trkpt lat="49.36301" lon="0.26452">
        <ele>81.7</ele>
        <time>2020-02-06T10:21:49.000Z</time>
      </trkpt>
      <trkpt lat="49.36292" lon="0.26435">
        <ele>82.9</ele>
        <time>2020-02-06T10:22:02.000Z</time>
      </trkpt>
      <trkpt lat="49.3628" lon="0.26425">
        <ele>83.8</ele>
        <time>2020-02-06T10:22:14.000Z</time>
      </trkpt>
      <trkpt lat="49.36268" lon="0.26436">
        <ele>87</ele>
        <time>2020-02-06T10:22:34.000Z</time>
      </trkpt>
      <trkpt lat="49.36255" lon="0.26438">
        <ele>90.9</ele>
        <time>2020-02-06T10:22:56.000Z</time>
      </trkpt>
      <trkpt lat="49.36241" lon="0.26436">
        <ele>93.7</ele>
        <time>2020-02-06T10:23:15.000Z</time>
      </trkpt>
      <trkpt lat="49.36228" lon="0.26428">
        <ele>96.7</ele>
        <time>2020-02-06T10:23:33.000Z</time>
      </trkpt>
      <trkpt lat="49.36217" lon="0.26416">
        <ele>100.1</ele>
        <time>2020-02-06T10:23:55.000Z</time>
      </trkpt>
      <trkpt lat="49.36206" lon="0.26404">
        <ele>103.7</ele>
        <time>2020-02-06T10:24:16.000Z</time>
      </trkpt>
      <trkpt lat="49.36193" lon="0.26395">
        <ele>105.8</ele>
        <time>2020-02-06T10:24:33.000Z</time>
      </trkpt>
      <trkpt lat="49.36179" lon="0.26391">
        <ele>109</ele>
        <time>2020-02-06T10:24:55.000Z</time>
      </trkpt>
      <trkpt lat="49.36166" lon="0.26388">
        <ele>110.6</ele>
        <time>2020-02-06T10:25:12.000Z</time>
      </trkpt>
      <trkpt lat="49.36152" lon="0.26393">
        <ele>112.5</ele>
        <time>2020-02-06T10:25:32.000Z</time>
      </trkpt>
      <trkpt lat="49.36141" lon="0.26407">
        <ele>112.9</ele>
        <time>2020-02-06T10:25:46.000Z</time>
      </trkpt>
      <trkpt lat="49.3613" lon="0.26422">
        <ele>113</ele>
        <time>2020-02-06T10:25:59.000Z</time>
      </trkpt>
      <trkpt lat="49.36117" lon="0.26432">
        <ele>111.7</ele>
        <time>2020-02-06T10:26:13.000Z</time>
      </trkpt>
      <trkpt lat="49.36103" lon="0.26434">
        <ele>112</ele>
        <time>2020-02-06T10:26:26.000Z</time>
      </trkpt>
      <trkpt lat="49.36089" lon="0.26434">
        <ele>113</ele>
        <time>2020-02-06T10:26:40.000Z</time>
      </trkpt>
      <trkpt lat="49.36075" lon="0.26434">
        <ele>114.6</ele>
        <time>2020-02-06T10:26:52.000Z</time>
      </trkpt>
      <trkpt lat="49.36062" lon="0.26439">
        <ele>115.3</ele>
        <time>2020-02-06T10:27:03.000Z</time>
      </trkpt>
      <trkpt lat="49.36048" lon="0.2644">
        <ele>115</ele>
        <time>2020-02-06T10:27:15.000Z</time>
      </trkpt>
      <trkpt lat="49.36034" lon="0.26443">
        <ele>114.5</ele>
        <time>2020-02-06T10:27:29.000Z</time>
      </trkpt>
      <trkpt lat="49.3602" lon="0.26443">
        <ele>115.3</ele>
        <time>2020-02-06T10:27:41.000Z</time>
      </trkpt>
      <trkpt lat="49.36004" lon="0.26445">
        <ele>116.2</ele>
        <time>2020-02-06T10:27:53.000Z</time>
      </trkpt>
      <trkpt lat="49.3599" lon="0.26441">
        <ele>116.4</ele>
        <time>2020-02-06T10:28:03.000Z</time>
      </trkpt>
      <trkpt lat="49.35977" lon="0.26436">
        <ele>117.1</ele>
        <time>2020-02-06T10:28:15.000Z</time>
      </trkpt>
      <trkpt lat="49.35966" lon="0.26423">
        <ele>118.3</ele>
        <time>2020-02-06T10:28:27.000Z</time>
      </trkpt>
      <trkpt lat="49.35957" lon="0.26406">
        <ele>119.3</ele>
        <time>2020-02-06T10:28:38.000Z</time>
      </trkpt>
      <trkpt lat="49.35948" lon="0.26389">
        <ele>119.7</ele>
        <time>2020-02-06T10:28:48.000Z</time>
      </trkpt>
      <trkpt lat="49.35935" lon="0.26379">
        <ele>120.1</ele>
        <time>2020-02-06T10:29:00.000Z</time>
      </trkpt>
      <trkpt lat="49.35922" lon="0.26374">
        <ele>120.1</ele>
        <time>2020-02-06T10:29:10.000Z</time>
      </trkpt>
      <trkpt lat="49.35908" lon="0.2637">
        <ele>119.8</ele>
        <time>2020-02-06T10:29:22.000Z</time>
      </trkpt>
      <trkpt lat="49.35897" lon="0.26357">
        <ele>119</ele>
        <time>2020-02-06T10:29:35.000Z</time>
      </trkpt>
      <trkpt lat="49.35888" lon="0.26339">
        <ele>119.4</ele>
        <time>2020-02-06T10:29:47.000Z</time>
      </trkpt>
      <trkpt lat="49.35876" lon="0.26328">
        <ele>119.5</ele>
        <time>2020-02-06T10:29:59.000Z</time>
      </trkpt>
      <trkpt lat="49.35864" lon="0.26318">
        <ele>120.9</ele>
        <time>2020-02-06T10:30:12.000Z</time>
      </trkpt>
      <trkpt lat="49.35851" lon="0.26309">
        <ele>122.1</ele>
        <time>2020-02-06T10:30:27.000Z</time>
      </trkpt>
      <trkpt lat="49.35841" lon="0.26294">
        <ele>122.5</ele>
        <time>2020-02-06T10:30:37.000Z</time>
      </trkpt>
      <trkpt lat="49.35828" lon="0.26284">
        <ele>123.2</ele>
        <time>2020-02-06T10:30:50.000Z</time>
      </trkpt>
      <trkpt lat="49.35816" lon="0.26271">
        <ele>123.8</ele>
        <time>2020-02-06T10:31:03.000Z</time>
      </trkpt>
      <trkpt lat="49.35807" lon="0.26255">
        <ele>124.5</ele>
        <time>2020-02-06T10:31:14.000Z</time>
      </trkpt>
      <trkpt lat="49.35798" lon="0.26239">
        <ele>124.8</ele>
        <time>2020-02-06T10:31:27.000Z</time>
      </trkpt>
      <trkpt lat="49.3579" lon="0.26221">
        <ele>125.2</ele>
        <time>2020-02-06T10:31:40.000Z</time>
      </trkpt>
      <trkpt lat="49.35785" lon="0.262">
        <ele>125.2</ele>
        <time>2020-02-06T10:31:52.000Z</time>
      </trkpt>
      <trkpt lat="49.35781" lon="0.26178">
        <ele>125.8</ele>
        <time>2020-02-06T10:32:05.000Z</time>
      </trkpt>
      <trkpt lat="49.35773" lon="0.26161">
        <ele>125.9</ele>
        <time>2020-02-06T10:32:15.000Z</time>
      </trkpt>
      <trkpt lat="49.35765" lon="0.26144">
        <ele>126</ele>
        <time>2020-02-06T10:32:26.000Z</time>
      </trkpt>
      <trkpt lat="49.35752" lon="0.26132">
        <ele>126.4</ele>
        <time>2020-02-06T10:32:38.000Z</time>
      </trkpt>
      <trkpt lat="49.3574" lon="0.26121">
        <ele>126.5</ele>
        <time>2020-02-06T10:32:48.000Z</time>
      </trkpt>
      <trkpt lat="49.3573" lon="0.26106">
        <ele>126.9</ele>
        <time>2020-02-06T10:32:59.000Z</time>
      </trkpt>
      <trkpt lat="49.35718" lon="0.26096">
        <ele>127.1</ele>
        <time>2020-02-06T10:33:08.000Z</time>
      </trkpt>
      <trkpt lat="49.35708" lon="0.26083">
        <ele>127.3</ele>
        <time>2020-02-06T10:33:20.000Z</time>
      </trkpt>
      <trkpt lat="49.35695" lon="0.26071">
        <ele>127.5</ele>
        <time>2020-02-06T10:33:35.000Z</time>
      </trkpt>
      <trkpt lat="49.35684" lon="0.2606">
        <ele>127.7</ele>
        <time>2020-02-06T10:33:47.000Z</time>
      </trkpt>
      <trkpt lat="49.35674" lon="0.26045">
        <ele>127.5</ele>
        <time>2020-02-06T10:34:11.000Z</time>
      </trkpt>
      <trkpt lat="49.35661" lon="0.26037">
        <ele>126.8</ele>
        <time>2020-02-06T10:35:50.000Z</time>
      </trkpt>
      <trkpt lat="49.35649" lon="0.26027">
        <ele>126.8</ele>
        <time>2020-02-06T10:36:05.000Z</time>
      </trkpt>
      <trkpt lat="49.35636" lon="0.2602">
        <ele>127</ele>
        <time>2020-02-06T10:36:17.000Z</time>
      </trkpt>
      <trkpt lat="49.35623" lon="0.26013">
        <ele>127.1</ele>
        <time>2020-02-06T10:36:30.000Z</time>
      </trkpt>
      <trkpt lat="49.35609" lon="0.26005">
        <ele>126.9</ele>
        <time>2020-02-06T10:36:42.000Z</time>
      </trkpt>
      <trkpt lat="49.35596" lon="0.25999">
        <ele>126.9</ele>
        <time>2020-02-06T10:36:55.000Z</time>
      </trkpt>
      <trkpt lat="49.35584" lon="0.2599">
        <ele>126.5</ele>
        <time>2020-02-06T10:37:08.000Z</time>
      </trkpt>
      <trkpt lat="49.35572" lon="0.25982">
        <ele>126</ele>
        <time>2020-02-06T10:37:21.000Z</time>
      </trkpt>
      <trkpt lat="49.35558" lon="0.25975">
        <ele>126.6</ele>
        <time>2020-02-06T10:37:35.000Z</time>
      </trkpt>
      <trkpt lat="49.35546" lon="0.25965">
        <ele>126.3</ele>
        <time>2020-02-06T10:37:49.000Z</time>
      </trkpt>
      <trkpt lat="49.35534" lon="0.25954">
        <ele>126.1</ele>
        <time>2020-02-06T10:37:58.000Z</time>
      </trkpt>
      <trkpt lat="49.3552" lon="0.25947">
        <ele>126.5</ele>
        <time>2020-02-06T10:38:10.000Z</time>
      </trkpt>
      <trkpt lat="49.35506" lon="0.25939">
        <ele>126.5</ele>
        <time>2020-02-06T10:38:23.000Z</time>
      </trkpt>
      <trkpt lat="49.35493" lon="0.25931">
        <ele>126.7</ele>
        <time>2020-02-06T10:38:34.000Z</time>
      </trkpt>
      <trkpt lat="49.35481" lon="0.25919">
        <ele>127</ele>
        <time>2020-02-06T10:38:46.000Z</time>
      </trkpt>
      <trkpt lat="49.35469" lon="0.2591">
        <ele>127.3</ele>
        <time>2020-02-06T10:38:58.000Z</time>
      </trkpt>
      <trkpt lat="49.35457" lon="0.25899">
        <ele>127.5</ele>
        <time>2020-02-06T10:39:10.000Z</time>
      </trkpt>
      <trkpt lat="49.35447" lon="0.25886">
        <ele>127.6</ele>
        <time>2020-02-06T10:39:19.000Z</time>
      </trkpt>
      <trkpt lat="49.35435" lon="0.25874">
        <ele>127.1</ele>
        <time>2020-02-06T10:39:31.000Z</time>
      </trkpt>
      <trkpt lat="49.35424" lon="0.25862">
        <ele>126.8</ele>
        <time>2020-02-06T10:39:44.000Z</time>
      </trkpt>
      <trkpt lat="49.35412" lon="0.2585">
        <ele>126.7</ele>
        <time>2020-02-06T10:39:55.000Z</time>
      </trkpt>
      <trkpt lat="49.354" lon="0.25839">
        <ele>126.5</ele>
        <time>2020-02-06T10:40:05.000Z</time>
      </trkpt>
      <trkpt lat="49.35389" lon="0.25826">
        <ele>125.2</ele>
        <time>2020-02-06T10:40:17.000Z</time>
      </trkpt>
      <trkpt lat="49.35376" lon="0.25816">
        <ele>124.1</ele>
        <time>2020-02-06T10:40:30.000Z</time>
      </trkpt>
      <trkpt lat="49.35367" lon="0.25801">
        <ele>122.1</ele>
        <time>2020-02-06T10:40:43.000Z</time>
      </trkpt>
      <trkpt lat="49.35373" lon="0.25783">
        <ele>122.3</ele>
        <time>2020-02-06T10:41:09.000Z</time>
      </trkpt>
      <trkpt lat="49.35382" lon="0.25766">
        <ele>124.5</ele>
        <time>2020-02-06T10:41:26.000Z</time>
      </trkpt>
      <trkpt lat="49.35388" lon="0.25746">
        <ele>125.7</ele>
        <time>2020-02-06T10:41:40.000Z</time>
      </trkpt>
      <trkpt lat="49.35397" lon="0.2573">
        <ele>127.3</ele>
        <time>2020-02-06T10:41:57.000Z</time>
      </trkpt>
      <trkpt lat="49.35404" lon="0.25712">
        <ele>128.1</ele>
        <time>2020-02-06T10:42:11.000Z</time>
      </trkpt>
      <trkpt lat="49.35412" lon="0.25694">
        <ele>128.7</ele>
        <time>2020-02-06T10:42:23.000Z</time>
      </trkpt>
      <trkpt lat="49.35418" lon="0.25676">
        <ele>129.7</ele>
        <time>2020-02-06T10:42:36.000Z</time>
      </trkpt>
      <trkpt lat="49.35426" lon="0.25657">
        <ele>130.3</ele>
        <time>2020-02-06T10:42:47.000Z</time>
      </trkpt>
      <trkpt lat="49.35433" lon="0.2564">
        <ele>130.2</ele>
        <time>2020-02-06T10:42:58.000Z</time>
      </trkpt>
      <trkpt lat="49.35442" lon="0.25623">
        <ele>130.2</ele>
        <time>2020-02-06T10:43:09.000Z</time>
      </trkpt>
      <trkpt lat="49.35453" lon="0.25607">
        <ele>130.2</ele>
        <time>2020-02-06T10:43:20.000Z</time>
      </trkpt>
      <trkpt lat="49.3546" lon="0.25587">
        <ele>130.2</ele>
        <time>2020-02-06T10:43:34.000Z</time>
      </trkpt>
      <trkpt lat="49.35465" lon="0.25568">
        <ele>130.2</ele>
        <time>2020-02-06T10:43:47.000Z</time>
      </trkpt>
      <trkpt lat="49.35473" lon="0.2555">
        <ele>129.5</ele>
        <time>2020-02-06T10:43:59.000Z</time>
      </trkpt>
      <trkpt lat="49.35476" lon="0.25528">
        <ele>128.7</ele>
        <time>2020-02-06T10:44:15.000Z</time>
      </trkpt>
      <trkpt lat="49.35482" lon="0.2551">
        <ele>128.4</ele>
        <time>2020-02-06T10:44:37.000Z</time>
      </trkpt>
      <trkpt lat="49.35489" lon="0.25492">
        <ele>128.2</ele>
        <time>2020-02-06T10:44:59.000Z</time>
      </trkpt>
      <trkpt lat="49.35492" lon="0.25471">
        <ele>128.9</ele>
        <time>2020-02-06T10:45:17.000Z</time>
      </trkpt>
      <trkpt lat="49.35499" lon="0.25453">
        <ele>128.6</ele>
        <time>2020-02-06T10:45:32.000Z</time>
      </trkpt>
      <trkpt lat="49.35506" lon="0.25435">
        <ele>128.7</ele>
        <time>2020-02-06T10:45:48.000Z</time>
      </trkpt>
      <trkpt lat="49.35511" lon="0.25415">
        <ele>128.7</ele>
        <time>2020-02-06T10:46:04.000Z</time>
      </trkpt>
      <trkpt lat="49.35519" lon="0.25395">
        <ele>128.8</ele>
        <time>2020-02-06T10:46:19.000Z</time>
      </trkpt>
      <trkpt lat="49.35525" lon="0.25377">
        <ele>128.7</ele>
        <time>2020-02-06T10:46:33.000Z</time>
      </trkpt>
      <trkpt lat="49.3553" lon="0.25357">
        <ele>128.8</ele>
        <time>2020-02-06T10:46:48.000Z</time>
      </trkpt>
      <trkpt lat="49.35535" lon="0.25338">
        <ele>128.5</ele>
        <time>2020-02-06T10:47:06.000Z</time>
      </trkpt>
      <trkpt lat="49.35541" lon="0.25318">
        <ele>128.8</ele>
        <time>2020-02-06T10:47:25.000Z</time>
      </trkpt>
      <trkpt lat="49.35545" lon="0.25298">
        <ele>128.8</ele>
        <time>2020-02-06T10:47:39.000Z</time>
      </trkpt>
      <trkpt lat="49.3555" lon="0.25278">
        <ele>128.6</ele>
        <time>2020-02-06T10:47:58.000Z</time>
      </trkpt>
      <trkpt lat="49.35563" lon="0.25275">
        <ele>124.2</ele>
        <time>2020-02-06T10:49:01.000Z</time>
      </trkpt>
      <trkpt lat="49.35576" lon="0.25284">
        <ele>125.3</ele>
        <time>2020-02-06T10:49:15.000Z</time>
      </trkpt>
      <trkpt lat="49.35584" lon="0.25266">
        <ele>127.1</ele>
        <time>2020-02-06T10:49:31.000Z</time>
      </trkpt>
      <trkpt lat="49.35592" lon="0.25247">
        <ele>128.5</ele>
        <time>2020-02-06T10:49:45.000Z</time>
      </trkpt>
      <trkpt lat="49.35599" lon="0.25229">
        <ele>129</ele>
        <time>2020-02-06T10:49:58.000Z</time>
      </trkpt>
      <trkpt lat="49.35605" lon="0.25209">
        <ele>128.7</ele>
        <time>2020-02-06T10:50:12.000Z</time>
      </trkpt>
      <trkpt lat="49.35612" lon="0.25191">
        <ele>129.2</ele>
        <time>2020-02-06T10:50:25.000Z</time>
      </trkpt>
      <trkpt lat="49.35619" lon="0.25172">
        <ele>129.6</ele>
        <time>2020-02-06T10:50:38.000Z</time>
      </trkpt>
      <trkpt lat="49.35633" lon="0.25172">
        <ele>129.6</ele>
        <time>2020-02-06T10:50:53.000Z</time>
      </trkpt>
      <trkpt lat="49.35645" lon="0.25182">
        <ele>129.9</ele>
        <time>2020-02-06T10:51:07.000Z</time>
      </trkpt>
      <trkpt lat="49.35658" lon="0.2519">
        <ele>129.9</ele>
        <time>2020-02-06T10:51:20.000Z</time>
      </trkpt>
      <trkpt lat="49.3567" lon="0.25199">
        <ele>130.1</ele>
        <time>2020-02-06T10:51:34.000Z</time>
      </trkpt>
      <trkpt lat="49.35684" lon="0.25203">
        <ele>130</ele>
        <time>2020-02-06T10:51:57.000Z</time>
      </trkpt>
      <trkpt lat="49.35696" lon="0.25212">
        <ele>130.5</ele>
        <time>2020-02-06T10:53:08.000Z</time>
      </trkpt>
      <trkpt lat="49.3571" lon="0.25215">
        <ele>129.9</ele>
        <time>2020-02-06T10:53:34.000Z</time>
      </trkpt>
      <trkpt lat="49.35724" lon="0.25219">
        <ele>130.3</ele>
        <time>2020-02-06T10:53:56.000Z</time>
      </trkpt>
      <trkpt lat="49.35737" lon="0.25224">
        <ele>130.1</ele>
        <time>2020-02-06T10:54:11.000Z</time>
      </trkpt>
      <trkpt lat="49.3575" lon="0.25229">
        <ele>130</ele>
        <time>2020-02-06T10:54:32.000Z</time>
      </trkpt>
      <trkpt lat="49.35764" lon="0.25233">
        <ele>130.2</ele>
        <time>2020-02-06T10:54:46.000Z</time>
      </trkpt>
      <trkpt lat="49.35777" lon="0.25239">
        <ele>128.3</ele>
        <time>2020-02-06T10:55:10.000Z</time>
      </trkpt>
      <trkpt lat="49.35791" lon="0.25241">
        <ele>130.9</ele>
        <time>2020-02-06T10:56:16.000Z</time>
      </trkpt>
      <trkpt lat="49.35804" lon="0.2525">
        <ele>133.1</ele>
        <time>2020-02-06T10:58:20.000Z</time>
      </trkpt>
      <trkpt lat="49.35817" lon="0.25254">
        <ele>131.6</ele>
        <time>2020-02-06T10:58:45.000Z</time>
      </trkpt>
      <trkpt lat="49.3583" lon="0.25263">
        <ele>130.5</ele>
        <time>2020-02-06T10:59:01.000Z</time>
      </trkpt>
      <trkpt lat="49.35844" lon="0.25268">
        <ele>130.3</ele>
        <time>2020-02-06T10:59:17.000Z</time>
      </trkpt>
      <trkpt lat="49.35857" lon="0.25275">
        <ele>129.9</ele>
        <time>2020-02-06T10:59:34.000Z</time>
      </trkpt>
      <trkpt lat="49.3587" lon="0.25283">
        <ele>128.4</ele>
        <time>2020-02-06T10:59:52.000Z</time>
      </trkpt>
      <trkpt lat="49.35883" lon="0.25291">
        <ele>129.6</ele>
        <time>2020-02-06T11:00:40.000Z</time>
      </trkpt>
      <trkpt lat="49.35895" lon="0.25298">
        <ele>129.3</ele>
        <time>2020-02-06T11:00:56.000Z</time>
      </trkpt>
      <trkpt lat="49.35908" lon="0.2531">
        <ele>129.1</ele>
        <time>2020-02-06T11:01:12.000Z</time>
      </trkpt>
      <trkpt lat="49.35919" lon="0.25322">
        <ele>128.9</ele>
        <time>2020-02-06T11:01:28.000Z</time>
      </trkpt>
      <trkpt lat="49.35932" lon="0.25333">
        <ele>129.1</ele>
        <time>2020-02-06T11:01:40.000Z</time>
      </trkpt>
      <trkpt lat="49.35945" lon="0.25342">
        <ele>128.9</ele>
        <time>2020-02-06T11:01:52.000Z</time>
      </trkpt>
      <trkpt lat="49.35959" lon="0.2535">
        <ele>128.9</ele>
        <time>2020-02-06T11:02:05.000Z</time>
      </trkpt>
      <trkpt lat="49.3597" lon="0.25363">
        <ele>128.7</ele>
        <time>2020-02-06T11:02:16.000Z</time>
      </trkpt>
      <trkpt lat="49.35983" lon="0.25373">
        <ele>128.4</ele>
        <time>2020-02-06T11:02:27.000Z</time>
      </trkpt>
      <trkpt lat="49.35994" lon="0.25386">
        <ele>128.4</ele>
        <time>2020-02-06T11:02:40.000Z</time>
      </trkpt>
      <trkpt lat="49.36006" lon="0.25396">
        <ele>128.5</ele>
        <time>2020-02-06T11:02:51.000Z</time>
      </trkpt>
      <trkpt lat="49.36017" lon="0.2541">
        <ele>127.7</ele>
        <time>2020-02-06T11:03:02.000Z</time>
      </trkpt>
      <trkpt lat="49.36013" lon="0.25432">
        <ele>126.9</ele>
        <time>2020-02-06T11:03:20.000Z</time>
      </trkpt>
      <trkpt lat="49.36006" lon="0.25449">
        <ele>126.9</ele>
        <time>2020-02-06T11:03:29.000Z</time>
      </trkpt>
      <trkpt lat="49.35999" lon="0.25467">
        <ele>127.2</ele>
        <time>2020-02-06T11:03:40.000Z</time>
      </trkpt>
      <trkpt lat="49.35992" lon="0.25487">
        <ele>127.3</ele>
        <time>2020-02-06T11:03:53.000Z</time>
      </trkpt>
      <trkpt lat="49.35985" lon="0.25505">
        <ele>127.5</ele>
        <time>2020-02-06T11:04:04.000Z</time>
      </trkpt>
      <trkpt lat="49.35977" lon="0.25524">
        <ele>127.3</ele>
        <time>2020-02-06T11:04:16.000Z</time>
      </trkpt>
      <trkpt lat="49.3597" lon="0.25542">
        <ele>127.4</ele>
        <time>2020-02-06T11:04:27.000Z</time>
      </trkpt>
      <trkpt lat="49.35963" lon="0.25561">
        <ele>127.4</ele>
        <time>2020-02-06T11:04:39.000Z</time>
      </trkpt>
      <trkpt lat="49.35956" lon="0.2558">
        <ele>127.2</ele>
        <time>2020-02-06T11:04:51.000Z</time>
      </trkpt>
      <trkpt lat="49.35948" lon="0.25598">
        <ele>126.8</ele>
        <time>2020-02-06T11:05:02.000Z</time>
      </trkpt>
      <trkpt lat="49.35941" lon="0.25615">
        <ele>127.1</ele>
        <time>2020-02-06T11:05:13.000Z</time>
      </trkpt>
      <trkpt lat="49.35932" lon="0.25634">
        <ele>125.4</ele>
        <time>2020-02-06T11:05:24.000Z</time>
      </trkpt>
      <trkpt lat="49.35927" lon="0.25653">
        <ele>122.9</ele>
        <time>2020-02-06T11:05:35.000Z</time>
      </trkpt>
      <trkpt lat="49.35939" lon="0.25663">
        <ele>122.4</ele>
        <time>2020-02-06T11:05:47.000Z</time>
      </trkpt>
      <trkpt lat="49.35951" lon="0.25673">
        <ele>123.5</ele>
        <time>2020-02-06T11:05:58.000Z</time>
      </trkpt>
      <trkpt lat="49.35963" lon="0.25681">
        <ele>125</ele>
        <time>2020-02-06T11:06:10.000Z</time>
      </trkpt>
      <trkpt lat="49.35977" lon="0.2569">
        <ele>126</ele>
        <time>2020-02-06T11:06:22.000Z</time>
      </trkpt>
      <trkpt lat="49.3599" lon="0.25698">
        <ele>126.2</ele>
        <time>2020-02-06T11:06:34.000Z</time>
      </trkpt>
      <trkpt lat="49.36004" lon="0.25704">
        <ele>126.3</ele>
        <time>2020-02-06T11:06:46.000Z</time>
      </trkpt>
      <trkpt lat="49.36017" lon="0.25711">
        <ele>126.5</ele>
        <time>2020-02-06T11:06:57.000Z</time>
      </trkpt>
      <trkpt lat="49.3603" lon="0.2572">
        <ele>126.6</ele>
        <time>2020-02-06T11:07:08.000Z</time>
      </trkpt>
      <trkpt lat="49.36042" lon="0.25731">
        <ele>126.6</ele>
        <time>2020-02-06T11:07:20.000Z</time>
      </trkpt>
      <trkpt lat="49.36055" lon="0.25736">
        <ele>126.6</ele>
        <time>2020-02-06T11:07:31.000Z</time>
      </trkpt>
      <trkpt lat="49.36069" lon="0.25744">
        <ele>126.7</ele>
        <time>2020-02-06T11:07:42.000Z</time>
      </trkpt>
      <trkpt lat="49.36082" lon="0.25751">
        <ele>126.7</ele>
        <time>2020-02-06T11:07:54.000Z</time>
      </trkpt>
      <trkpt lat="49.36094" lon="0.25763">
        <ele>126.6</ele>
        <time>2020-02-06T11:08:07.000Z</time>
      </trkpt>
      <trkpt lat="49.36106" lon="0.25772">
        <ele>126.6</ele>
        <time>2020-02-06T11:08:18.000Z</time>
      </trkpt>
      <trkpt lat="49.36119" lon="0.25781">
        <ele>126.8</ele>
        <time>2020-02-06T11:08:29.000Z</time>
      </trkpt>
      <trkpt lat="49.36132" lon="0.2579">
        <ele>126.7</ele>
        <time>2020-02-06T11:08:40.000Z</time>
      </trkpt>
      <trkpt lat="49.36144" lon="0.258">
        <ele>126.8</ele>
        <time>2020-02-06T11:08:51.000Z</time>
      </trkpt>
      <trkpt lat="49.36157" lon="0.25809">
        <ele>126.8</ele>
        <time>2020-02-06T11:09:02.000Z</time>
      </trkpt>
      <trkpt lat="49.36169" lon="0.25819">
        <ele>126.7</ele>
        <time>2020-02-06T11:09:13.000Z</time>
      </trkpt>
      <trkpt lat="49.36182" lon="0.25829">
        <ele>126.8</ele>
        <time>2020-02-06T11:09:25.000Z</time>
      </trkpt>
      <trkpt lat="49.36196" lon="0.25838">
        <ele>126.6</ele>
        <time>2020-02-06T11:09:37.000Z</time>
      </trkpt>
      <trkpt lat="49.36209" lon="0.25848">
        <ele>126.5</ele>
        <time>2020-02-06T11:09:48.000Z</time>
      </trkpt>
      <trkpt lat="49.3622" lon="0.25861">
        <ele>126.4</ele>
        <time>2020-02-06T11:10:03.000Z</time>
      </trkpt>
      <trkpt lat="49.3622" lon="0.25884">
        <ele>124</ele>
        <time>2020-02-06T11:12:24.000Z</time>
      </trkpt>
      <trkpt lat="49.36214" lon="0.25902">
        <ele>122.8</ele>
        <time>2020-02-06T11:12:38.000Z</time>
      </trkpt>
      <trkpt lat="49.36208" lon="0.25922">
        <ele>121.9</ele>
        <time>2020-02-06T11:12:53.000Z</time>
      </trkpt>
      <trkpt lat="49.36218" lon="0.25938">
        <ele>121.4</ele>
        <time>2020-02-06T11:13:07.000Z</time>
      </trkpt>
      <trkpt lat="49.3623" lon="0.2595">
        <ele>121.1</ele>
        <time>2020-02-06T11:13:19.000Z</time>
      </trkpt>
      <trkpt lat="49.36241" lon="0.25963">
        <ele>120.9</ele>
        <time>2020-02-06T11:13:31.000Z</time>
      </trkpt>
      <trkpt lat="49.36251" lon="0.25977">
        <ele>120.9</ele>
        <time>2020-02-06T11:13:45.000Z</time>
      </trkpt>
      <trkpt lat="49.36263" lon="0.25988">
        <ele>120.7</ele>
        <time>2020-02-06T11:13:56.000Z</time>
      </trkpt>
      <trkpt lat="49.36274" lon="0.26002">
        <ele>120.6</ele>
        <time>2020-02-06T11:14:08.000Z</time>
      </trkpt>
      <trkpt lat="49.36286" lon="0.26012">
        <ele>119.8</ele>
        <time>2020-02-06T11:14:18.000Z</time>
      </trkpt>
      <trkpt lat="49.36297" lon="0.26024">
        <ele>119.5</ele>
        <time>2020-02-06T11:14:33.000Z</time>
      </trkpt>
      <trkpt lat="49.36308" lon="0.26037">
        <ele>120.3</ele>
        <time>2020-02-06T11:14:46.000Z</time>
      </trkpt>
      <trkpt lat="49.36321" lon="0.26051">
        <ele>120.9</ele>
        <time>2020-02-06T11:15:00.000Z</time>
      </trkpt>
      <trkpt lat="49.3633" lon="0.26067">
        <ele>120.4</ele>
        <time>2020-02-06T11:15:12.000Z</time>
      </trkpt>
      <trkpt lat="49.36343" lon="0.26073">
        <ele>121.5</ele>
        <time>2020-02-06T11:15:57.000Z</time>
      </trkpt>
      <trkpt lat="49.36355" lon="0.26084">
        <ele>121.6</ele>
        <time>2020-02-06T11:16:15.000Z</time>
      </trkpt>
      <trkpt lat="49.36368" lon="0.2609">
        <ele>121.6</ele>
        <time>2020-02-06T11:16:24.000Z</time>
      </trkpt>
      <trkpt lat="49.36381" lon="0.26098">
        <ele>121.6</ele>
        <time>2020-02-06T11:16:35.000Z</time>
      </trkpt>
      <trkpt lat="49.36396" lon="0.26104">
        <ele>121.5</ele>
        <time>2020-02-06T11:16:46.000Z</time>
      </trkpt>
      <trkpt lat="49.36409" lon="0.26111">
        <ele>121.1</ele>
        <time>2020-02-06T11:16:58.000Z</time>
      </trkpt>
      <trkpt lat="49.36428" lon="0.26117">
        <ele>121.1</ele>
        <time>2020-02-06T11:17:11.000Z</time>
      </trkpt>
      <trkpt lat="49.36442" lon="0.26124">
        <ele>120.8</ele>
        <time>2020-02-06T11:17:25.000Z</time>
      </trkpt>
      <trkpt lat="49.36455" lon="0.2613">
        <ele>120.4</ele>
        <time>2020-02-06T11:17:36.000Z</time>
      </trkpt>
      <trkpt lat="49.36469" lon="0.26135">
        <ele>119.3</ele>
        <time>2020-02-06T11:17:48.000Z</time>
      </trkpt>
      <trkpt lat="49.36484" lon="0.26142">
        <ele>120.1</ele>
        <time>2020-02-06T11:18:01.000Z</time>
      </trkpt>
      <trkpt lat="49.365" lon="0.26147">
        <ele>119.9</ele>
        <time>2020-02-06T11:18:11.000Z</time>
      </trkpt>
      <trkpt lat="49.36514" lon="0.2615">
        <ele>119.8</ele>
        <time>2020-02-06T11:18:20.000Z</time>
      </trkpt>
      <trkpt lat="49.36528" lon="0.26153">
        <ele>119.7</ele>
        <time>2020-02-06T11:18:29.000Z</time>
      </trkpt>
      <trkpt lat="49.36542" lon="0.26154">
        <ele>119.8</ele>
        <time>2020-02-06T11:18:40.000Z</time>
      </trkpt>
      <trkpt lat="49.3655" lon="0.26135">
        <ele>119.4</ele>
        <time>2020-02-06T11:18:52.000Z</time>
      </trkpt>
      <trkpt lat="49.36553" lon="0.26114">
        <ele>119.3</ele>
        <time>2020-02-06T11:19:03.000Z</time>
      </trkpt>
      <trkpt lat="49.36558" lon="0.26093">
        <ele>119.2</ele>
        <time>2020-02-06T11:19:13.000Z</time>
      </trkpt>
      <trkpt lat="49.36565" lon="0.26075">
        <ele>119.5</ele>
        <time>2020-02-06T11:19:23.000Z</time>
      </trkpt>
      <trkpt lat="49.3657" lon="0.26053">
        <ele>119</ele>
        <time>2020-02-06T11:19:34.000Z</time>
      </trkpt>
      <trkpt lat="49.36573" lon="0.26033">
        <ele>118.8</ele>
        <time>2020-02-06T11:19:45.000Z</time>
      </trkpt>
      <trkpt lat="49.36579" lon="0.26014">
        <ele>118.6</ele>
        <time>2020-02-06T11:19:57.000Z</time>
      </trkpt>
      <trkpt lat="49.36584" lon="0.25994">
        <ele>117.9</ele>
        <time>2020-02-06T11:20:09.000Z</time>
      </trkpt>
      <trkpt lat="49.3659" lon="0.25975">
        <ele>117.6</ele>
        <time>2020-02-06T11:20:21.000Z</time>
      </trkpt>
      <trkpt lat="49.36596" lon="0.25957">
        <ele>117</ele>
        <time>2020-02-06T11:20:34.000Z</time>
      </trkpt>
      <trkpt lat="49.36601" lon="0.25935">
        <ele>116.5</ele>
        <time>2020-02-06T11:20:48.000Z</time>
      </trkpt>
      <trkpt lat="49.36607" lon="0.25916">
        <ele>115.6</ele>
        <time>2020-02-06T11:21:08.000Z</time>
      </trkpt>
      <trkpt lat="49.36621" lon="0.25918">
        <ele>114.1</ele>
        <time>2020-02-06T11:21:24.000Z</time>
      </trkpt>
      <trkpt lat="49.36635" lon="0.2592">
        <ele>113.4</ele>
        <time>2020-02-06T11:21:34.000Z</time>
      </trkpt>
      <trkpt lat="49.3665" lon="0.25918">
        <ele>112.7</ele>
        <time>2020-02-06T11:21:44.000Z</time>
      </trkpt>
      <trkpt lat="49.36663" lon="0.25918">
        <ele>111.9</ele>
        <time>2020-02-06T11:21:55.000Z</time>
      </trkpt>
      <trkpt lat="49.36677" lon="0.25919">
        <ele>111.4</ele>
        <time>2020-02-06T11:22:06.000Z</time>
      </trkpt>
      <trkpt lat="49.36691" lon="0.25922">
        <ele>110.5</ele>
        <time>2020-02-06T11:22:18.000Z</time>
      </trkpt>
      <trkpt lat="49.36705" lon="0.25925">
        <ele>109.1</ele>
        <time>2020-02-06T11:22:29.000Z</time>
      </trkpt>
      <trkpt lat="49.3672" lon="0.25929">
        <ele>108.3</ele>
        <time>2020-02-06T11:22:41.000Z</time>
      </trkpt>
      <trkpt lat="49.36733" lon="0.25933">
        <ele>106.6</ele>
        <time>2020-02-06T11:22:55.000Z</time>
      </trkpt>
      <trkpt lat="49.36747" lon="0.25937">
        <ele>105.3</ele>
        <time>2020-02-06T11:23:07.000Z</time>
      </trkpt>
      <trkpt lat="49.3676" lon="0.25938">
        <ele>104.3</ele>
        <time>2020-02-06T11:23:17.000Z</time>
      </trkpt>
      <trkpt lat="49.36775" lon="0.25941">
        <ele>102.9</ele>
        <time>2020-02-06T11:23:29.000Z</time>
      </trkpt>
      <trkpt lat="49.3679" lon="0.25945">
        <ele>101.6</ele>
        <time>2020-02-06T11:23:42.000Z</time>
      </trkpt>
      <trkpt lat="49.36803" lon="0.25951">
        <ele>100.7</ele>
        <time>2020-02-06T11:23:54.000Z</time>
      </trkpt>
      <trkpt lat="49.36816" lon="0.25955">
        <ele>99.6</ele>
        <time>2020-02-06T11:24:07.000Z</time>
      </trkpt>
      <trkpt lat="49.3683" lon="0.2596">
        <ele>97.9</ele>
        <time>2020-02-06T11:24:23.000Z</time>
      </trkpt>
      <trkpt lat="49.36844" lon="0.25963">
        <ele>96.2</ele>
        <time>2020-02-06T11:24:36.000Z</time>
      </trkpt>
      <trkpt lat="49.36858" lon="0.25969">
        <ele>94.5</ele>
        <time>2020-02-06T11:24:46.000Z</time>
      </trkpt>
      <trkpt lat="49.36872" lon="0.25974">
        <ele>92.8</ele>
        <time>2020-02-06T11:25:00.000Z</time>
      </trkpt>
      <trkpt lat="49.36886" lon="0.25979">
        <ele>91</ele>
        <time>2020-02-06T11:25:13.000Z</time>
      </trkpt>
      <trkpt lat="49.36901" lon="0.25982">
        <ele>89.1</ele>
        <time>2020-02-06T11:25:25.000Z</time>
      </trkpt>
      <trkpt lat="49.36914" lon="0.25982">
        <ele>87.5</ele>
        <time>2020-02-06T11:25:35.000Z</time>
      </trkpt>
      <trkpt lat="49.36928" lon="0.25985">
        <ele>85.8</ele>
        <time>2020-02-06T11:25:48.000Z</time>
      </trkpt>
      <trkpt lat="49.3694" lon="0.25976">
        <ele>81.7</ele>
        <time>2020-02-06T11:26:33.000Z</time>
      </trkpt>
      <trkpt lat="49.36945" lon="0.25956">
        <ele>82.4</ele>
        <time>2020-02-06T11:26:59.000Z</time>
      </trkpt>
      <trkpt lat="49.3695" lon="0.25936">
        <ele>81.1</ele>
        <time>2020-02-06T11:27:14.000Z</time>
      </trkpt>
      <trkpt lat="49.36954" lon="0.25916">
        <ele>79.5</ele>
        <time>2020-02-06T11:27:34.000Z</time>
      </trkpt>
      <trkpt lat="49.36959" lon="0.25896">
        <ele>77.5</ele>
        <time>2020-02-06T11:27:50.000Z</time>
      </trkpt>
      <trkpt lat="49.36968" lon="0.25879">
        <ele>75.5</ele>
        <time>2020-02-06T11:28:05.000Z</time>
      </trkpt>
      <trkpt lat="49.36973" lon="0.2586">
        <ele>74.2</ele>
        <time>2020-02-06T11:28:18.000Z</time>
      </trkpt>
      <trkpt lat="49.36978" lon="0.2584">
        <ele>72.2</ele>
        <time>2020-02-06T11:28:42.000Z</time>
      </trkpt>
      <trkpt lat="49.36986" lon="0.25824">
        <ele>70.9</ele>
        <time>2020-02-06T11:29:05.000Z</time>
      </trkpt>
      <trkpt lat="49.36986" lon="0.25803">
        <ele>69.2</ele>
        <time>2020-02-06T11:29:34.000Z</time>
      </trkpt>
      <trkpt lat="49.36991" lon="0.25783">
        <ele>68</ele>
        <time>2020-02-06T11:30:11.000Z</time>
      </trkpt>
      <trkpt lat="49.36998" lon="0.25764">
        <ele>66.7</ele>
        <time>2020-02-06T11:30:42.000Z</time>
      </trkpt>
      <trkpt lat="49.37" lon="0.25743">
        <ele>65.6</ele>
        <time>2020-02-06T11:31:08.000Z</time>
      </trkpt>
      <trkpt lat="49.37008" lon="0.25726">
        <ele>64.6</ele>
        <time>2020-02-06T11:31:31.000Z</time>
      </trkpt>
      <trkpt lat="49.37017" lon="0.25709">
        <ele>62.9</ele>
        <time>2020-02-06T11:31:55.000Z</time>
      </trkpt>
      <trkpt lat="49.37027" lon="0.25694">
        <ele>61.3</ele>
        <time>2020-02-06T11:32:17.000Z</time>
      </trkpt>
      <trkpt lat="49.37029" lon="0.25673">
        <ele>61.4</ele>
        <time>2020-02-06T11:32:48.000Z</time>
      </trkpt>
      <trkpt lat="49.37024" lon="0.25652">
        <ele>59.9</ele>
        <time>2020-02-06T11:33:00.000Z</time>
      </trkpt>
      <trkpt lat="49.37018" lon="0.25633">
        <ele>59.3</ele>
        <time>2020-02-06T11:33:25.000Z</time>
      </trkpt>
      <trkpt lat="49.37005" lon="0.25624">
        <ele>59.1</ele>
        <time>2020-02-06T11:33:40.000Z</time>
      </trkpt>
      <trkpt lat="49.36991" lon="0.25618">
        <ele>59.1</ele>
        <time>2020-02-06T11:33:53.000Z</time>
      </trkpt>
      <trkpt lat="49.36979" lon="0.25606">
        <ele>59.5</ele>
        <time>2020-02-06T11:34:04.000Z</time>
      </trkpt>
      <trkpt lat="49.36968" lon="0.25594">
        <ele>59.8</ele>
        <time>2020-02-06T11:34:18.000Z</time>
      </trkpt>
      <trkpt lat="49.36955" lon="0.25587">
        <ele>61.1</ele>
        <time>2020-02-06T11:34:32.000Z</time>
      </trkpt>
      <trkpt lat="49.3694" lon="0.25585">
        <ele>59.9</ele>
        <time>2020-02-06T11:34:47.000Z</time>
      </trkpt>
      <trkpt lat="49.36931" lon="0.2557">
        <ele>61.1</ele>
        <time>2020-02-06T11:35:05.000Z</time>
      </trkpt>
      <trkpt lat="49.36924" lon="0.25551">
        <ele>63</ele>
        <time>2020-02-06T11:35:19.000Z</time>
      </trkpt>
      <trkpt lat="49.36919" lon="0.25532">
        <ele>64</ele>
        <time>2020-02-06T11:35:34.000Z</time>
      </trkpt>
      <trkpt lat="49.36918" lon="0.25511">
        <ele>65.1</ele>
        <time>2020-02-06T11:35:48.000Z</time>
      </trkpt>
      <trkpt lat="49.36913" lon="0.25491">
        <ele>66.7</ele>
        <time>2020-02-06T11:36:03.000Z</time>
      </trkpt>
      <trkpt lat="49.3691" lon="0.2547">
        <ele>67.7</ele>
        <time>2020-02-06T11:36:20.000Z</time>
      </trkpt>
      <trkpt lat="49.36908" lon="0.25447">
        <ele>68.3</ele>
        <time>2020-02-06T11:36:38.000Z</time>
      </trkpt>
      <trkpt lat="49.36907" lon="0.25427">
        <ele>69.1</ele>
        <time>2020-02-06T11:36:53.000Z</time>
      </trkpt>
      <trkpt lat="49.36901" lon="0.25408">
        <ele>70.1</ele>
        <time>2020-02-06T11:37:13.000Z</time>
      </trkpt>
      <trkpt lat="49.36899" lon="0.25386">
        <ele>70.7</ele>
        <time>2020-02-06T11:37:31.000Z</time>
      </trkpt>
      <trkpt lat="49.36895" lon="0.25366">
        <ele>71.9</ele>
        <time>2020-02-06T11:37:44.000Z</time>
      </trkpt>
      <trkpt lat="49.3689" lon="0.25346">
        <ele>70.7</ele>
        <time>2020-02-06T11:37:58.000Z</time>
      </trkpt>
      <trkpt lat="49.36885" lon="0.25326">
        <ele>71.5</ele>
        <time>2020-02-06T11:38:13.000Z</time>
      </trkpt>
      <trkpt lat="49.3688" lon="0.25306">
        <ele>72.5</ele>
        <time>2020-02-06T11:38:25.000Z</time>
      </trkpt>
      <trkpt lat="49.36874" lon="0.25287">
        <ele>73.2</ele>
        <time>2020-02-06T11:38:40.000Z</time>
      </trkpt>
      <trkpt lat="49.3687" lon="0.25265">
        <ele>73.7</ele>
        <time>2020-02-06T11:38:56.000Z</time>
      </trkpt>
      <trkpt lat="49.36868" lon="0.25244">
        <ele>74.4</ele>
        <time>2020-02-06T11:39:11.000Z</time>
      </trkpt>
      <trkpt lat="49.36865" lon="0.25223">
        <ele>75.2</ele>
        <time>2020-02-06T11:39:23.000Z</time>
      </trkpt>
      <trkpt lat="49.36863" lon="0.25202">
        <ele>76</ele>
        <time>2020-02-06T11:39:37.000Z</time>
      </trkpt>
      <trkpt lat="49.36863" lon="0.2518">
        <ele>76.6</ele>
        <time>2020-02-06T11:39:51.000Z</time>
      </trkpt>
      <trkpt lat="49.36858" lon="0.2516">
        <ele>76.5</ele>
        <time>2020-02-06T11:40:02.000Z</time>
      </trkpt>
      <trkpt lat="49.36856" lon="0.25139">
        <ele>77.1</ele>
        <time>2020-02-06T11:40:14.000Z</time>
      </trkpt>
      <trkpt lat="49.36852" lon="0.25119">
        <ele>77.5</ele>
        <time>2020-02-06T11:40:31.000Z</time>
      </trkpt>
      <trkpt lat="49.36852" lon="0.25097">
        <ele>76.9</ele>
        <time>2020-02-06T11:40:44.000Z</time>
      </trkpt>
      <trkpt lat="49.36846" lon="0.25078">
        <ele>76.4</ele>
        <time>2020-02-06T11:40:59.000Z</time>
      </trkpt>
      <trkpt lat="49.36843" lon="0.25057">
        <ele>76</ele>
        <time>2020-02-06T11:41:15.000Z</time>
      </trkpt>
      <trkpt lat="49.3684" lon="0.25035">
        <ele>75.9</ele>
        <time>2020-02-06T11:41:30.000Z</time>
      </trkpt>
      <trkpt lat="49.36834" lon="0.25016">
        <ele>76.3</ele>
        <time>2020-02-06T11:41:47.000Z</time>
      </trkpt>
      <trkpt lat="49.36827" lon="0.24998">
        <ele>76.9</ele>
        <time>2020-02-06T11:42:01.000Z</time>
      </trkpt>
      <trkpt lat="49.36819" lon="0.2498">
        <ele>77.6</ele>
        <time>2020-02-06T11:42:17.000Z</time>
      </trkpt>
      <trkpt lat="49.3681" lon="0.24964">
        <ele>79.1</ele>
        <time>2020-02-06T11:42:33.000Z</time>
      </trkpt>
      <trkpt lat="49.36799" lon="0.24948">
        <ele>80</ele>
        <time>2020-02-06T11:42:49.000Z</time>
      </trkpt>
      <trkpt lat="49.36792" lon="0.24929">
        <ele>81.5</ele>
        <time>2020-02-06T11:43:05.000Z</time>
      </trkpt>
      <trkpt lat="49.3679" lon="0.24907">
        <ele>81.9</ele>
        <time>2020-02-06T11:43:20.000Z</time>
      </trkpt>
      <trkpt lat="49.36783" lon="0.24887">
        <ele>80.7</ele>
        <time>2020-02-06T11:43:33.000Z</time>
      </trkpt>
      <trkpt lat="49.36774" lon="0.24871">
        <ele>81.9</ele>
        <time>2020-02-06T11:43:47.000Z</time>
      </trkpt>
      <trkpt lat="49.36766" lon="0.24852">
        <ele>82.7</ele>
        <time>2020-02-06T11:44:04.000Z</time>
      </trkpt>
      <trkpt lat="49.36758" lon="0.24835">
        <ele>83.1</ele>
        <time>2020-02-06T11:44:20.000Z</time>
      </trkpt>
      <trkpt lat="49.36748" lon="0.24821">
        <ele>83.6</ele>
        <time>2020-02-06T11:44:35.000Z</time>
      </trkpt>
      <trkpt lat="49.36738" lon="0.24803">
        <ele>83.6</ele>
        <time>2020-02-06T11:44:50.000Z</time>
      </trkpt>
      <trkpt lat="49.3673" lon="0.24786">
        <ele>83.7</ele>
        <time>2020-02-06T11:45:00.000Z</time>
      </trkpt>
      <trkpt lat="49.36721" lon="0.24769">
        <ele>83.7</ele>
        <time>2020-02-06T11:45:12.000Z</time>
      </trkpt>
      <trkpt lat="49.3671" lon="0.24755">
        <ele>84.5</ele>
        <time>2020-02-06T11:45:24.000Z</time>
      </trkpt>
      <trkpt lat="49.36701" lon="0.24739">
        <ele>85</ele>
        <time>2020-02-06T11:45:36.000Z</time>
      </trkpt>
      <trkpt lat="49.36694" lon="0.24721">
        <ele>85.9</ele>
        <time>2020-02-06T11:45:51.000Z</time>
      </trkpt>
      <trkpt lat="49.36687" lon="0.24701">
        <ele>86</ele>
        <time>2020-02-06T11:46:06.000Z</time>
      </trkpt>
      <trkpt lat="49.36682" lon="0.24681">
        <ele>86.3</ele>
        <time>2020-02-06T11:46:19.000Z</time>
      </trkpt>
      <trkpt lat="49.36674" lon="0.24663">
        <ele>86.9</ele>
        <time>2020-02-06T11:46:32.000Z</time>
      </trkpt>
      <trkpt lat="49.36666" lon="0.24645">
        <ele>86.9</ele>
        <time>2020-02-06T11:46:46.000Z</time>
      </trkpt>
      <trkpt lat="49.36657" lon="0.24627">
        <ele>87.7</ele>
        <time>2020-02-06T11:47:02.000Z</time>
      </trkpt>
      <trkpt lat="49.36647" lon="0.2461">
        <ele>88.6</ele>
        <time>2020-02-06T11:47:15.000Z</time>
      </trkpt>
      <trkpt lat="49.36638" lon="0.24595">
        <ele>89</ele>
        <time>2020-02-06T11:47:30.000Z</time>
      </trkpt>
      <trkpt lat="49.36627" lon="0.24581">
        <ele>88.8</ele>
        <time>2020-02-06T11:47:47.000Z</time>
      </trkpt>
      <trkpt lat="49.36618" lon="0.24563">
        <ele>88.9</ele>
        <time>2020-02-06T11:48:02.000Z</time>
      </trkpt>
      <trkpt lat="49.36607" lon="0.24551">
        <ele>89.3</ele>
        <time>2020-02-06T11:48:15.000Z</time>
      </trkpt>
      <trkpt lat="49.36597" lon="0.24535">
        <ele>90</ele>
        <time>2020-02-06T11:48:30.000Z</time>
      </trkpt>
      <trkpt lat="49.36588" lon="0.2452">
        <ele>89.6</ele>
        <time>2020-02-06T11:48:42.000Z</time>
      </trkpt>
      <trkpt lat="49.36577" lon="0.24506">
        <ele>88.9</ele>
        <time>2020-02-06T11:48:59.000Z</time>
      </trkpt>
      <trkpt lat="49.36565" lon="0.24492">
        <ele>87.5</ele>
        <time>2020-02-06T11:49:09.000Z</time>
      </trkpt>
      <trkpt lat="49.36553" lon="0.24478">
        <ele>88.2</ele>
        <time>2020-02-06T11:49:23.000Z</time>
      </trkpt>
      <trkpt lat="49.36543" lon="0.24463">
        <ele>88.5</ele>
        <time>2020-02-06T11:49:38.000Z</time>
      </trkpt>
      <trkpt lat="49.36532" lon="0.24449">
        <ele>88.4</ele>
        <time>2020-02-06T11:49:53.000Z</time>
      </trkpt>
      <trkpt lat="49.36521" lon="0.24437">
        <ele>88.4</ele>
        <time>2020-02-06T11:50:08.000Z</time>
      </trkpt>
      <trkpt lat="49.3651" lon="0.24425">
        <ele>88.6</ele>
        <time>2020-02-06T11:50:20.000Z</time>
      </trkpt>
      <trkpt lat="49.365" lon="0.2441">
        <ele>88.5</ele>
        <time>2020-02-06T11:50:33.000Z</time>
      </trkpt>
      <trkpt lat="49.36493" lon="0.24391">
        <ele>88.3</ele>
        <time>2020-02-06T11:50:44.000Z</time>
      </trkpt>
      <trkpt lat="49.36483" lon="0.24376">
        <ele>87.8</ele>
        <time>2020-02-06T11:50:55.000Z</time>
      </trkpt>
      <trkpt lat="49.36471" lon="0.24365">
        <ele>88</ele>
        <time>2020-02-06T11:51:09.000Z</time>
      </trkpt>
      <trkpt lat="49.36459" lon="0.24352">
        <ele>88.7</ele>
        <time>2020-02-06T11:51:24.000Z</time>
      </trkpt>
      <trkpt lat="49.36446" lon="0.24344">
        <ele>89.1</ele>
        <time>2020-02-06T11:51:40.000Z</time>
      </trkpt>
      <trkpt lat="49.36437" lon="0.24327">
        <ele>89.5</ele>
        <time>2020-02-06T11:51:54.000Z</time>
      </trkpt>
      <trkpt lat="49.36426" lon="0.24311">
        <ele>89.6</ele>
        <time>2020-02-06T11:52:02.000Z</time>
      </trkpt>
      <trkpt lat="49.36421" lon="0.24291">
        <ele>89.1</ele>
        <time>2020-02-06T11:52:12.000Z</time>
      </trkpt>
      <trkpt lat="49.36413" lon="0.24274">
        <ele>88.5</ele>
        <time>2020-02-06T11:52:24.000Z</time>
      </trkpt>
      <trkpt lat="49.36406" lon="0.24255">
        <ele>87.7</ele>
        <time>2020-02-06T11:52:37.000Z</time>
      </trkpt>
      <trkpt lat="49.36396" lon="0.24239">
        <ele>87.1</ele>
        <time>2020-02-06T11:52:49.000Z</time>
      </trkpt>
      <trkpt lat="49.3639" lon="0.2422">
        <ele>87.5</ele>
        <time>2020-02-06T11:53:03.000Z</time>
      </trkpt>
      <trkpt lat="49.36386" lon="0.242">
        <ele>87.7</ele>
        <time>2020-02-06T11:53:15.000Z</time>
      </trkpt>
      <trkpt lat="49.36382" lon="0.24179">
        <ele>87.9</ele>
        <time>2020-02-06T11:53:30.000Z</time>
      </trkpt>
      <trkpt lat="49.36373" lon="0.24162">
        <ele>84.6</ele>
        <time>2020-02-06T11:53:49.000Z</time>
      </trkpt>
      <trkpt lat="49.36375" lon="0.24141">
        <ele>83.1</ele>
        <time>2020-02-06T11:54:04.000Z</time>
      </trkpt>
      <trkpt lat="49.3637" lon="0.24121">
        <ele>84.3</ele>
        <time>2020-02-06T11:54:16.000Z</time>
      </trkpt>
      <trkpt lat="49.36375" lon="0.24102">
        <ele>85.9</ele>
        <time>2020-02-06T11:54:31.000Z</time>
      </trkpt>
      <trkpt lat="49.36364" lon="0.24085">
        <ele>86.6</ele>
        <time>2020-02-06T11:55:25.000Z</time>
      </trkpt>
      <trkpt lat="49.36351" lon="0.24078">
        <ele>87</ele>
        <time>2020-02-06T11:55:38.000Z</time>
      </trkpt>
      <trkpt lat="49.36338" lon="0.24072">
        <ele>87.5</ele>
        <time>2020-02-06T11:55:54.000Z</time>
      </trkpt>
      <trkpt lat="49.36325" lon="0.24064">
        <ele>88</ele>
        <time>2020-02-06T11:56:10.000Z</time>
      </trkpt>
      <trkpt lat="49.36313" lon="0.24055">
        <ele>88.4</ele>
        <time>2020-02-06T11:56:23.000Z</time>
      </trkpt>
      <trkpt lat="49.36299" lon="0.24051">
        <ele>88.9</ele>
        <time>2020-02-06T11:56:31.000Z</time>
      </trkpt>
      <trkpt lat="49.36285" lon="0.24049">
        <ele>89.6</ele>
        <time>2020-02-06T11:56:41.000Z</time>
      </trkpt>
      <trkpt lat="49.36273" lon="0.24042">
        <ele>90</ele>
        <time>2020-02-06T11:56:49.000Z</time>
      </trkpt>
      <trkpt lat="49.3626" lon="0.24037">
        <ele>90.8</ele>
        <time>2020-02-06T11:57:05.000Z</time>
      </trkpt>
      <trkpt lat="49.36246" lon="0.24035">
        <ele>92</ele>
        <time>2020-02-06T11:57:16.000Z</time>
      </trkpt>
      <trkpt lat="49.36232" lon="0.24031">
        <ele>92.9</ele>
        <time>2020-02-06T11:57:28.000Z</time>
      </trkpt>
      <trkpt lat="49.36218" lon="0.24028">
        <ele>94.3</ele>
        <time>2020-02-06T11:57:38.000Z</time>
      </trkpt>
      <trkpt lat="49.36203" lon="0.24024">
        <ele>96.8</ele>
        <time>2020-02-06T11:57:57.000Z</time>
      </trkpt>
      <trkpt lat="49.3619" lon="0.24016">
        <ele>98.7</ele>
        <time>2020-02-06T11:58:14.000Z</time>
      </trkpt>
      <trkpt lat="49.36177" lon="0.24008">
        <ele>100.2</ele>
        <time>2020-02-06T11:58:31.000Z</time>
      </trkpt>
      <trkpt lat="49.36164" lon="0.24">
        <ele>101.4</ele>
        <time>2020-02-06T11:58:47.000Z</time>
      </trkpt>
      <trkpt lat="49.3615" lon="0.23994">
        <ele>102.7</ele>
        <time>2020-02-06T11:59:02.000Z</time>
      </trkpt>
      <trkpt lat="49.36138" lon="0.23986">
        <ele>104.6</ele>
        <time>2020-02-06T11:59:17.000Z</time>
      </trkpt>
      <trkpt lat="49.36125" lon="0.2398">
        <ele>105.3</ele>
        <time>2020-02-06T11:59:28.000Z</time>
      </trkpt>
      <trkpt lat="49.36111" lon="0.23971">
        <ele>106.1</ele>
        <time>2020-02-06T11:59:48.000Z</time>
      </trkpt>
      <trkpt lat="49.36098" lon="0.23962">
        <ele>106.8</ele>
        <time>2020-02-06T12:00:08.000Z</time>
      </trkpt>
      <trkpt lat="49.36085" lon="0.23952">
        <ele>107.1</ele>
        <time>2020-02-06T12:00:20.000Z</time>
      </trkpt>
      <trkpt lat="49.36075" lon="0.23938">
        <ele>107.6</ele>
        <time>2020-02-06T12:00:37.000Z</time>
      </trkpt>
      <trkpt lat="49.36061" lon="0.2393">
        <ele>107.9</ele>
        <time>2020-02-06T12:00:45.000Z</time>
      </trkpt>
      <trkpt lat="49.36049" lon="0.23918">
        <ele>108.4</ele>
        <time>2020-02-06T12:01:01.000Z</time>
      </trkpt>
      <trkpt lat="49.36034" lon="0.23909">
        <ele>108.6</ele>
        <time>2020-02-06T12:01:12.000Z</time>
      </trkpt>
      <trkpt lat="49.3602" lon="0.23901">
        <ele>108.9</ele>
        <time>2020-02-06T12:01:25.000Z</time>
      </trkpt>
      <trkpt lat="49.36006" lon="0.23892">
        <ele>109.2</ele>
        <time>2020-02-06T12:01:37.000Z</time>
      </trkpt>
      <trkpt lat="49.35994" lon="0.23882">
        <ele>109.4</ele>
        <time>2020-02-06T12:01:48.000Z</time>
      </trkpt>
      <trkpt lat="49.35981" lon="0.23875">
        <ele>110.3</ele>
        <time>2020-02-06T12:02:03.000Z</time>
      </trkpt>
      <trkpt lat="49.35968" lon="0.23868">
        <ele>111.2</ele>
        <time>2020-02-06T12:02:17.000Z</time>
      </trkpt>
      <trkpt lat="49.35954" lon="0.23863">
        <ele>112.2</ele>
        <time>2020-02-06T12:02:30.000Z</time>
      </trkpt>
      <trkpt lat="49.3594" lon="0.23857">
        <ele>113.2</ele>
        <time>2020-02-06T12:02:46.000Z</time>
      </trkpt>
      <trkpt lat="49.35927" lon="0.23851">
        <ele>113.8</ele>
        <time>2020-02-06T12:02:57.000Z</time>
      </trkpt>
      <trkpt lat="49.35913" lon="0.23847">
        <ele>114.4</ele>
        <time>2020-02-06T12:03:12.000Z</time>
      </trkpt>
      <trkpt lat="49.35899" lon="0.23843">
        <ele>114.8</ele>
        <time>2020-02-06T12:03:22.000Z</time>
      </trkpt>
      <trkpt lat="49.35886" lon="0.23837">
        <ele>115.9</ele>
        <time>2020-02-06T12:03:36.000Z</time>
      </trkpt>
      <trkpt lat="49.35873" lon="0.23832">
        <ele>116.9</ele>
        <time>2020-02-06T12:03:50.000Z</time>
      </trkpt>
      <trkpt lat="49.35859" lon="0.2383">
        <ele>118.2</ele>
        <time>2020-02-06T12:04:01.000Z</time>
      </trkpt>
      <trkpt lat="49.35846" lon="0.23824">
        <ele>120</ele>
        <time>2020-02-06T12:04:17.000Z</time>
      </trkpt>
      <trkpt lat="49.35832" lon="0.23822">
        <ele>117</ele>
        <time>2020-02-06T12:05:56.000Z</time>
      </trkpt>
      <trkpt lat="49.35818" lon="0.23814">
        <ele>116.2</ele>
        <time>2020-02-06T12:06:05.000Z</time>
      </trkpt>
      <trkpt lat="49.35807" lon="0.23799">
        <ele>115.2</ele>
        <time>2020-02-06T12:06:16.000Z</time>
      </trkpt>
      <trkpt lat="49.35794" lon="0.23788">
        <ele>115.4</ele>
        <time>2020-02-06T12:06:27.000Z</time>
      </trkpt>
      <trkpt lat="49.35783" lon="0.23776">
        <ele>114.7</ele>
        <time>2020-02-06T12:06:40.000Z</time>
      </trkpt>
      <trkpt lat="49.3577" lon="0.23766">
        <ele>113.9</ele>
        <time>2020-02-06T12:06:52.000Z</time>
      </trkpt>
      <trkpt lat="49.35757" lon="0.23758">
        <ele>113.4</ele>
        <time>2020-02-06T12:07:04.000Z</time>
      </trkpt>
      <trkpt lat="49.35743" lon="0.23752">
        <ele>112.1</ele>
        <time>2020-02-06T12:07:16.000Z</time>
      </trkpt>
      <trkpt lat="49.3573" lon="0.23746">
        <ele>111</ele>
        <time>2020-02-06T12:07:28.000Z</time>
      </trkpt>
      <trkpt lat="49.35718" lon="0.23735">
        <ele>110.2</ele>
        <time>2020-02-06T12:07:39.000Z</time>
      </trkpt>
      <trkpt lat="49.35709" lon="0.23719">
        <ele>109.2</ele>
        <time>2020-02-06T12:07:50.000Z</time>
      </trkpt>
      <trkpt lat="49.357" lon="0.23703">
        <ele>109.3</ele>
        <time>2020-02-06T12:08:05.000Z</time>
      </trkpt>
      <trkpt lat="49.35695" lon="0.23683">
        <ele>109.9</ele>
        <time>2020-02-06T12:08:18.000Z</time>
      </trkpt>
      <trkpt lat="49.35687" lon="0.23665">
        <ele>110.2</ele>
        <time>2020-02-06T12:08:31.000Z</time>
      </trkpt>
      <trkpt lat="49.35685" lon="0.23644">
        <ele>110.5</ele>
        <time>2020-02-06T12:08:44.000Z</time>
      </trkpt>
      <trkpt lat="49.3569" lon="0.23624">
        <ele>111.6</ele>
        <time>2020-02-06T12:09:20.000Z</time>
      </trkpt>
      <trkpt lat="49.35697" lon="0.23605">
        <ele>111.9</ele>
        <time>2020-02-06T12:09:34.000Z</time>
      </trkpt>
      <trkpt lat="49.35701" lon="0.23584">
        <ele>113.6</ele>
        <time>2020-02-06T12:09:46.000Z</time>
      </trkpt>
      <trkpt lat="49.35704" lon="0.23562">
        <ele>115.7</ele>
        <time>2020-02-06T12:09:58.000Z</time>
      </trkpt>
      <trkpt lat="49.35694" lon="0.23546">
        <ele>117.7</ele>
        <time>2020-02-06T12:10:27.000Z</time>
      </trkpt>
      <trkpt lat="49.35694" lon="0.23546">
        <ele>117.6</ele>
        <time>2020-02-06T12:10:27.000Z</time>
      </trkpt>
      <trkpt lat="49.35694" lon="0.23546">
        <ele>117.6</ele>
        <time>2020-02-06T12:10:27.000Z</time>
      </trkpt>
    </trkseg>
  </trk>
</gpx>